Provisional Data: Trout Brook near McGraw, NY


Please select a monitoring station.
Please select start date.
Please select start date.

Toggle Unit: C/F Toggle Unit: C/F
Sample Time Temperature (C) Temperature (F) Specific Conductivity (mS/cm) pH   Turbidity (NTU+) DO (mg/L)
9/6/2021 12:00:00 AM 16.31 61.358 0.224 7.78 3168.83 9.44
9/6/2021 12:15:00 AM 16.27 61.286 0.223 7.78 3583.74 9.44
9/6/2021 12:30:00 AM 16.22 61.196 0.223 7.78 4687.9 9.45
9/6/2021 12:45:00 AM 16.17 61.106 0.223 7.77 4649.89 9.47
9/6/2021 1:00:00 AM 16.14 61.052 0.223 7.78 54.51 9.47
9/6/2021 1:15:00 AM 16.1 60.98 0.223 7.78 52.65 9.48
9/6/2021 1:30:00 AM 16.06 60.908 0.223 7.77 52.54 9.5
9/6/2021 1:45:00 AM 16.02 60.836 0.223 7.77 47.49 9.5
9/6/2021 2:00:00 AM 15.97 60.746 0.223 7.77 47.61 9.51
9/6/2021 2:15:00 AM 15.93 60.674 0.223 7.78 42.55 9.52
9/6/2021 2:30:00 AM 15.87 60.566 0.223 7.77 34.9 9.52
9/6/2021 2:45:00 AM 15.83 60.494 0.223 7.77 53.28 9.53
9/6/2021 3:00:00 AM 15.79 60.422 0.223 7.77 52.93 9.54
9/6/2021 3:15:00 AM 15.75 60.35 0.222 7.77 51.44 9.55
9/6/2021 3:30:00 AM 15.7 60.26 0.222 7.77 52.89 9.57
9/6/2021 3:45:00 AM 15.66 60.188 0.222 7.77 52.86 9.58
9/6/2021 4:00:00 AM 15.61 60.098 0.222 7.77 52.03 9.59
9/6/2021 4:15:00 AM 15.56 60.008 0.223 7.77 52.87 9.6
9/6/2021 4:30:00 AM 15.51 59.918 0.222 7.77 51.44 9.6
9/6/2021 4:45:00 AM 15.46 59.828 0.222 7.77 52.1 9.62
9/6/2021 5:00:00 AM 15.42 59.756 0.222 7.77 52.14 9.63
9/6/2021 5:15:00 AM 15.37 59.666 0.222 7.77 51.79 9.64
9/6/2021 5:30:00 AM 15.33 59.594 0.222 7.77 51.5 9.65
9/6/2021 5:45:00 AM 15.29 59.522 0.222 7.77 50.57 9.65
9/6/2021 6:00:00 AM 15.27 59.486 0.222 7.77 51.01 9.66
9/6/2021 6:15:00 AM 15.23 59.414 0.223 7.77 50.12 9.68
9/6/2021 6:30:00 AM 15.19 59.342 0.223 7.77 43.92 9.69
9/6/2021 6:45:00 AM 15.14 59.252 0.223 7.78 43.9 9.75
9/6/2021 7:00:00 AM 15.11 59.198 0.223 7.8 44.01 9.85
9/6/2021 7:15:00 AM 15.09 59.162 0.223 7.82 44.32 10.01
9/6/2021 7:30:00 AM 15.07 59.126 0.223 7.85 44.55 10.19
9/6/2021 7:45:00 AM 15.07 59.126 0.223 7.88 44.35 10.39
9/6/2021 8:00:00 AM 15.07 59.126 0.222 7.92 44.08 10.54
9/6/2021 8:15:00 AM 15.08 59.144 0.222 7.96 43.76 10.73
9/6/2021 8:30:00 AM 15.15 59.27 0.222 8.02 44.27 10.96
9/6/2021 8:45:00 AM 15.25 59.45 0.222 8.1 43.97 11.24
9/6/2021 9:00:00 AM 15.3 59.54 0.221 8.13 43.85 11.23
9/6/2021 9:15:00 AM 15.42 59.756 0.221 8.21 43.93 11.5
9/6/2021 9:30:00 AM 15.52 59.936 0.221 8.26 45.3 11.55
9/6/2021 9:45:00 AM 15.53 59.954 0.221 8.24 45.26 11.34
9/6/2021 10:00:00 AM 15.55 59.99 0.221 8.23 43.97 11.25
9/6/2021 10:15:00 AM 15.64 60.152 0.22 8.27 44.45 11.41
9/6/2021 10:30:00 AM 15.66 60.188 0.22 8.28 44.53 11.35
9/6/2021 10:45:00 AM 15.75 60.35 0.22 8.3 43.41 11.43
9/6/2021 11:00:00 AM 16.08 60.944 0.22 8.37 43.94 11.59
9/6/2021 11:15:00 AM 16.19 61.142 0.219 8.43 44.56 11.73
9/6/2021 11:30:00 AM 16.28 61.304 0.219 8.45 44.74 11.72
9/6/2021 11:45:00 AM 16.36 61.448 0.219 8.45 45.55 11.42
9/6/2021 12:00:00 PM 16.37 61.466 0.219 8.45 46.17 11.53
9/6/2021 12:15:00 PM 16.52 61.736 0.219 8.49 46.14 11.66
9/6/2021 12:30:00 PM 16.85 62.33 0.219 8.54 45.51 11.78
9/6/2021 12:45:00 PM 17.09 62.762 0.219 8.56 45.27 11.77
9/6/2021 1:00:00 PM 17.27 63.086 0.219 8.57 45.92 11.69
9/6/2021 1:15:00 PM 17.44 63.392 0.219 8.54 46.07 11.6
9/6/2021 1:30:00 PM 17.65 63.77 0.219 8.56 45.99 11.55
9/6/2021 1:45:00 PM 17.81 64.058 0.219 8.57 47.11 11.51
9/6/2021 2:00:00 PM 18.01 64.418 0.219 8.58 47.76 11.56
9/6/2021 2:15:00 PM 18.11 64.598 0.218 8.6 46.38 11.53
9/6/2021 2:30:00 PM 18.21 64.778 0.219 8.61 47.9 11.52
9/6/2021 2:45:00 PM 18.44 65.192 0.218 8.63 43.95 11.51
9/6/2021 3:00:00 PM 18.57 65.426 0.219 8.65 43.9 11.52
9/6/2021 3:15:00 PM 18.41 65.138 0.218 8.64 44.31 11.37
9/6/2021 3:30:00 PM 18.39 65.102 0.218 8.63 45.57 11.22
9/6/2021 3:45:00 PM 18.34 65.012 0.218 8.59 45.01 11.03
9/6/2021 4:00:00 PM 18.5 65.3 0.219 8.58 46.38 11.06
9/6/2021 4:15:00 PM 18.65 65.57 0.218 8.59 46 11.15
9/6/2021 4:30:00 PM 18.67 65.606 0.219 8.58 46.2 11.14
9/6/2021 4:45:00 PM 18.46 65.228 0.22 8.5 45.94 10.77
9/6/2021 5:00:00 PM 18.58 65.444 0.219 8.53 45.9 11.03
9/6/2021 5:15:00 PM 18.49 65.282 0.22 8.53 48.72 10.92
9/6/2021 5:30:00 PM 18.33 64.994 0.22 8.46 46.96 10.7
9/6/2021 5:45:00 PM 18.25 64.85 0.22 8.4 46.04 10.53
9/6/2021 6:00:00 PM 18.19 64.742 0.221 8.36 46.36 10.44
9/6/2021 6:15:00 PM 18.1 64.58 0.221 8.3 47 10.33
9/6/2021 6:30:00 PM 17.98 64.364 0.222 8.24 47.52 10.16
9/6/2021 6:45:00 PM 17.87 64.166 0.222 8.16 46.45 9.98
9/6/2021 7:00:00 PM 17.76 63.968 0.223 8.1 46.42 9.8
9/6/2021 7:15:00 PM 17.63 63.734 0.223 8.03 46.21 9.64
9/6/2021 7:30:00 PM 17.51 63.518 0.224 7.98 46.01 9.47
9/6/2021 7:45:00 PM 17.39 63.302 0.224 7.93 47.22 9.34
9/6/2021 8:00:00 PM 17.27 63.086 0.225 7.89 48.86 9.28
9/6/2021 8:15:00 PM 17.15 62.87 0.225 7.87 46.83 9.25
9/6/2021 8:30:00 PM 17.03 62.654 0.226 7.85 46.1 9.23
9/6/2021 8:45:00 PM 16.91 62.438 0.226 7.84 46.67 9.24
9/6/2021 9:00:00 PM 16.79 62.222 0.226 7.82 46.03 9.25
9/6/2021 9:15:00 PM 16.68 62.024 0.214 7.81 47.11 9.26
9/6/2021 9:30:00 PM 16.57 61.826 0.227 7.79 45.02 9.29
9/6/2021 9:45:00 PM 16.46 61.628 0.227 7.79 44.5 9.3
9/6/2021 10:00:00 PM 16.36 61.448 0.228 7.79 44.37 9.33
9/6/2021 10:15:00 PM 16.26 61.268 0.228 7.78 46.42 9.34
9/6/2021 10:30:00 PM 16.16 61.088 0.228 7.78 466.93 9.36
9/6/2021 10:45:00 PM 16.06 60.908 0.229 7.77 466.49 9.39
9/6/2021 11:00:00 PM 15.97 60.746 0.229 7.78 456.79 9.41
9/6/2021 11:15:00 PM 15.89 60.602 0.229 7.78 439.27 9.43
9/6/2021 11:30:00 PM 15.8 60.44 0.23 7.77 606.49 9.44
9/6/2021 11:45:00 PM 15.72 60.296 0.23 7.77 612.95 9.46
9/7/2021 12:00:00 AM 15.64 60.152 0.23 7.77 629.4 9.48
9/7/2021 12:15:00 AM 15.56 60.008 0.23 7.76 620.47 9.5
9/7/2021 12:30:00 AM 15.48 59.864 0.231 7.77 479.82 9.52
9/7/2021 12:45:00 AM 15.41 59.738 0.231 7.77 479.95 9.53
9/7/2021 1:00:00 AM 15.34 59.612 0.232 7.77 486.02 9.55
9/7/2021 1:15:00 AM 15.28 59.504 0.232 7.77 609.71 9.57
9/7/2021 1:30:00 AM 15.21 59.378 0.232 7.77 822.97 9.58
9/7/2021 1:45:00 AM 15.14 59.252 0.232 7.76 741.38 9.6
9/7/2021 2:00:00 AM 15.07 59.126 0.232 7.76 661.47 9.63
9/7/2021 2:15:00 AM 15.01 59.018 0.232 7.76 739.71 9.64
9/7/2021 2:30:00 AM 14.95 58.91 0.232 7.76 778.02 9.65
9/7/2021 2:45:00 AM 14.88 58.784 0.232 7.76 631.82 9.67
9/7/2021 3:00:00 AM 14.82 58.676 0.232 7.76 637.55 9.68
9/7/2021 3:15:00 AM 14.77 58.586 0.233 7.76 610.69 9.69
9/7/2021 3:30:00 AM 14.7 58.46 0.233 7.76 615.59 9.71
9/7/2021 3:45:00 AM 14.66 58.388 0.233 7.76 612.65 9.72
9/7/2021 4:00:00 AM 14.61 58.298 0.233 7.76 627.28 9.73
9/7/2021 4:15:00 AM 14.57 58.226 0.234 7.76 632.57 9.75
9/7/2021 4:30:00 AM 14.54 58.172 0.234 7.76 631.23 9.77
9/7/2021 4:45:00 AM 14.5 58.1 0.234 7.76 636 9.78
9/7/2021 5:00:00 AM 14.44 57.992 0.234 7.76 641.72 9.79
9/7/2021 5:15:00 AM 14.39 57.902 0.234 7.72 640.16 9.8
9/7/2021 5:30:00 AM 14.34 57.812 0.234 7.71 632.95 9.81
9/7/2021 5:45:00 AM 14.29 57.722 0.234 7.74 632.4 9.82
9/7/2021 6:00:00 AM 14.24 57.632 0.234 7.75 637.06 9.83
9/7/2021 6:15:00 AM 14.19 57.542 0.234 7.74 643.56 9.84
9/7/2021 6:30:00 AM 14.14 57.452 0.234 7.75 641.05 9.86
9/7/2021 6:45:00 AM 14.1 57.38 0.234 7.75 651.89 9.92
9/7/2021 7:00:00 AM 14.05 57.29 0.234 7.77 727.63 10.04
9/7/2021 7:15:00 AM 14.01 57.218 0.234 7.78 635.13 10.18
9/7/2021 7:30:00 AM 13.98 57.164 0.234 7.8 656.4 10.31
9/7/2021 7:45:00 AM 13.96 57.128 0.234 7.82 645.78 10.43
9/7/2021 8:00:00 AM 13.96 57.128 0.234 7.85 667.35 10.56
9/7/2021 8:15:00 AM 13.97 57.146 0.234 7.87 654.53 10.71
9/7/2021 8:30:00 AM 14.03 57.254 0.234 7.91 693.05 10.87
9/7/2021 8:45:00 AM 14.11 57.398 0.234 7.95 635.01 11.01
9/7/2021 9:00:00 AM 14.21 57.578 0.234 7.99 626.89 11.15
9/7/2021 9:15:00 AM 14.33 57.794 0.234 8.02 616.9 11.26
9/7/2021 9:30:00 AM 14.46 58.028 0.234 8.05 598.9 11.35
9/7/2021 9:45:00 AM 14.61 58.298 0.234 8.09 617.83 11.42
9/7/2021 10:00:00 AM 14.77 58.586 0.234 8.13 625.82 11.5
9/7/2021 10:15:00 AM 14.94 58.892 0.233 8.17 627.4 11.56
9/7/2021 10:30:00 AM 15.12 59.216 0.233 8.19 619.43 11.61
9/7/2021 10:45:00 AM 15.3 59.54 0.233 8.22 629.22 11.63
9/7/2021 11:00:00 AM 15.5 59.9 0.233 8.27 546.89 11.65
9/7/2021 11:15:00 AM 15.71 60.278 0.233 8.3 580.31 11.66
9/7/2021 11:30:00 AM 15.92 60.656 0.233 8.33 592.42 11.68
9/7/2021 11:45:00 AM 16.13 61.034 0.232 8.35 633.78 11.68
9/7/2021 12:00:00 PM 16.35 61.43 0.232 8.37 582.15 11.67
9/7/2021 12:15:00 PM 16.58 61.844 0.232 8.37 761.79 11.67
9/7/2021 12:30:00 PM 16.81 62.258 0.232 8.43 623.08 11.67
9/7/2021 12:45:00 PM 17.02 62.636 0.232 8.45 624.16 11.66
9/7/2021 1:00:00 PM 17.24 63.032 0.232 8.46 620.42 11.64
9/7/2021 1:15:00 PM 17.44 63.392 0.231 8.47 629.21 11.65
9/7/2021 1:30:00 PM 17.68 63.824 0.231 8.5 635.18 11.63
9/7/2021 1:45:00 PM 17.83 64.094 0.231 8.53 633.37 11.56
9/7/2021 2:00:00 PM 18.06 64.508 0.231 8.54 629.83 11.58
9/7/2021 2:15:00 PM 18.27 64.886 0.23 8.57 647.57 11.57
9/7/2021 2:30:00 PM 18.44 65.192 0.231 8.59 643.84 11.55
9/7/2021 2:45:00 PM 18.62 65.516 0.23 8.6 647.85 11.48
9/7/2021 3:00:00 PM 18.77 65.786 0.23 8.6 634.01 11.44
9/7/2021 3:15:00 PM 18.91 66.038 0.23 8.61 637.68 11.42
9/7/2021 3:30:00 PM 19.02 66.236 0.23 8.61 638.32 11.39
9/7/2021 3:45:00 PM 18.93 66.074 0.23 8.57 635.35 11.14
9/7/2021 4:00:00 PM 19.08 66.344 0.23 8.59 632.54 11.24
9/7/2021 4:15:00 PM 19.11 66.398 0.23 8.59 641.72 11.18
9/7/2021 4:30:00 PM 19.2 66.56 0.23 8.6 654.32 11.17
9/7/2021 4:45:00 PM 19.24 66.632 0.23 8.59 656.36 11.1
9/7/2021 5:00:00 PM 19.18 66.524 0.231 8.53 656.32 10.89
9/7/2021 5:15:00 PM 19.15 66.47 0.231 8.53 649.46 10.87
9/7/2021 5:30:00 PM 19.13 66.434 0.231 8.5 647.64 10.78
9/7/2021 5:45:00 PM 19.05 66.29 0.231 8.46 645.46 10.62
9/7/2021 6:00:00 PM 18.96 66.128 0.232 8.4 638.45 10.43
9/7/2021 6:15:00 PM 18.85 65.93 0.232 8.32 643.16 10.22
9/7/2021 6:30:00 PM 18.73 65.714 0.233 8.24 635.39 10.02
9/7/2021 6:45:00 PM 18.6 65.48 0.234 8.15 651.59 9.77
9/7/2021 7:00:00 PM 18.47 65.246 0.234 8.08 693.21 9.6
9/7/2021 7:15:00 PM 18.33 64.994 0.235 8.01 699.74 9.42
9/7/2021 7:30:00 PM 18.2 64.76 0.235 7.95 785.95 9.24
9/7/2021 7:45:00 PM 18.08 64.544 0.236 7.91 679.82 9.1
9/7/2021 8:00:00 PM 17.97 64.346 0.236 7.88 650.46 9.05
9/7/2021 8:15:00 PM 17.85 64.13 0.236 7.85 652.11 9.01
9/7/2021 8:30:00 PM 17.73 63.914 0.237 7.83 633.57 9
9/7/2021 8:45:00 PM 17.61 63.698 0.237 7.82 662.94 9.01
9/7/2021 9:00:00 PM 17.49 63.482 0.238 7.81 651.65 9.02
9/7/2021 9:15:00 PM 17.38 63.284 0.238 7.8 643.01 9.04
9/7/2021 9:30:00 PM 17.27 63.086 0.238 7.8 660.08 9.06
9/7/2021 9:45:00 PM 17.17 62.906 0.238 7.79 656.34 9.07
9/7/2021 10:00:00 PM 17.07 62.726 0.239 7.79 680.75 9.1
9/7/2021 10:15:00 PM 16.97 62.546 0.239 7.79 683.13 9.12
9/7/2021 10:30:00 PM 16.88 62.384 0.239 7.79 678.59 9.13
9/7/2021 10:45:00 PM 16.79 62.222 0.239 7.79 684.09 9.15
9/7/2021 11:00:00 PM 16.73 62.114 0.24 7.79 673.3 9.16
9/7/2021 11:15:00 PM 16.69 62.042 0.24 7.78 647.41 9.17
9/7/2021 11:30:00 PM 16.65 61.97 0.24 7.78 677.1 9.18
9/7/2021 11:45:00 PM 16.6 61.88 0.241 7.79 694.13 9.2
9/8/2021 12:00:00 AM 16.56 61.808 0.241 7.78 673.09 9.21
9/8/2021 12:15:00 AM 16.53 61.754 0.241 7.78 698.74 9.21
9/8/2021 12:30:00 AM 16.49 61.682 0.241 7.78 682.24 9.23
9/8/2021 12:45:00 AM 16.47 61.646 0.241 7.78 676.71 9.24
9/8/2021 1:00:00 AM 16.45 61.61 0.241 7.78 672.66 9.24
9/8/2021 1:15:00 AM 16.44 61.592 0.242 7.78 673.4 9.25
9/8/2021 1:30:00 AM 16.41 61.538 0.242 7.78 687.32 9.25
9/8/2021 1:45:00 AM 16.4 61.52 0.242 7.78 701.49 9.25
9/8/2021 2:00:00 AM 16.39 61.502 0.242 7.78 709.97 9.25
9/8/2021 2:15:00 AM 16.37 61.466 0.242 7.78 675.63 9.26
9/8/2021 2:30:00 AM 16.35 61.43 0.243 7.78 676.03 9.26
9/8/2021 2:45:00 AM 16.32 61.376 0.243 7.78 678.33 9.27
9/8/2021 3:00:00 AM 16.29 61.322 0.243 7.78 720.9 9.27
9/8/2021 3:15:00 AM 16.26 61.268 0.243 7.78 699.3 9.26
9/8/2021 3:30:00 AM 16.24 61.232 0.243 7.78 714.07 9.28
9/8/2021 3:45:00 AM 16.21 61.178 0.244 7.78 721.55 9.28
9/8/2021 4:00:00 AM 16.18 61.124 0.244 7.78 713.81 9.28
9/8/2021 4:15:00 AM 16.16 61.088 0.244 7.78 709.64 9.28
9/8/2021 4:30:00 AM 16.13 61.034 0.244 7.78 691.14 9.28
9/8/2021 4:45:00 AM 16.1 60.98 0.244 7.78 691.14 9.3
9/8/2021 5:00:00 AM 16.08 60.944 0.244 7.78 817.33 9.32
9/8/2021 5:15:00 AM 16.05 60.89 0.244 7.78 628.07 9.32
9/8/2021 5:30:00 AM 16.03 60.854 0.244 7.78 951.08 9.33
9/8/2021 5:45:00 AM 16 60.8 0.244 7.78 966.09 9.34
9/8/2021 6:00:00 AM 15.97 60.746 0.244 7.78 1008.46 9.33
9/8/2021 6:15:00 AM 15.94 60.692 0.244 7.78 962.7 9.35
9/8/2021 6:30:00 AM 15.91 60.638 0.244 7.78 1064.91 9.36
9/8/2021 6:45:00 AM 15.89 60.602 0.244 7.78 1045.05 9.42
9/8/2021 7:00:00 AM 15.89 60.602 0.244 7.81 1079.44 9.6
9/8/2021 7:15:00 AM 15.89 60.602 0.244 7.83 1076.55 9.83
9/8/2021 7:30:00 AM 15.9 60.62 0.243 7.87 1089.91 10.06
9/8/2021 7:45:00 AM 15.91 60.638 0.243 7.92 1080.38 10.25
9/8/2021 8:00:00 AM 15.94 60.692 0.243 7.96 1058.47 10.48
9/8/2021 8:15:00 AM 15.97 60.746 0.242 8.01 1042.31 10.65
9/8/2021 8:30:00 AM 16.03 60.854 0.242 8.07 1049.85 10.85
9/8/2021 8:45:00 AM 16.14 61.052 0.242 8.16 937.48 11.17
9/8/2021 9:00:00 AM 16.31 61.358 0.241 8.28 939.41 11.49
9/8/2021 9:15:00 AM 16.31 61.358 0.241 8.3 961.03 11.45
9/8/2021 9:30:00 AM 16.38 61.484 0.241 8.34 1041.53 11.45
9/8/2021 9:45:00 AM 16.5 61.7 0.241 8.38 1010.68 11.52
9/8/2021 10:00:00 AM 16.68 62.024 0.241 8.42 977.81 11.62
9/8/2021 10:15:00 AM 16.75 62.15 0.24 8.45 927.45 11.64
9/8/2021 10:30:00 AM 16.91 62.438 0.24 8.49 937.26 11.69
9/8/2021 10:45:00 AM 17.14 62.852 0.24 8.52 935.68 11.75
9/8/2021 11:00:00 AM 17.19 62.942 0.24 8.56 943.6 11.78
9/8/2021 11:15:00 AM 17.21 62.978 0.239 8.59 867.26 11.81
9/8/2021 11:30:00 AM 17.34 63.212 0.239 8.62 875.44 11.89
9/8/2021 11:45:00 AM 17.72 63.896 0.238 8.69 787.43 12.07
9/8/2021 12:00:00 PM 17.77 63.986 0.238 8.72 769.66 12.08
9/8/2021 12:15:00 PM 17.79 64.022 0.238 8.74 765.03 12.05
9/8/2021 12:30:00 PM 17.8 64.04 0.238 8.73 739.36 11.83
9/8/2021 12:45:00 PM 17.82 64.076 0.238 8.68 676.18 11.54
9/8/2021 1:00:00 PM 17.96 64.328 0.237 8.71 657.08 11.68
9/8/2021 1:15:00 PM 17.9 64.22 0.238 8.63 752.38 11.24
9/8/2021 1:30:00 PM 17.85 64.13 0.238 8.54 739.33 10.91
9/8/2021 1:45:00 PM 17.89 64.202 0.238 8.54 671.46 11.03
9/8/2021 2:00:00 PM 18.14 64.652 0.237 8.61 723.79 11.41
9/8/2021 2:15:00 PM 18.39 65.102 0.237 8.67 703.97 11.65
9/8/2021 2:30:00 PM 18.23 64.814 0.238 8.61 659.97 11.14
9/8/2021 2:45:00 PM 18.11 64.598 0.239 8.46 744.66 10.58
9/8/2021 3:00:00 PM 18.07 64.526 0.239 8.37 658.07 10.2
9/8/2021 3:15:00 PM 18 64.4 0.239 8.25 704.02 9.88
9/8/2021 3:30:00 PM 17.92 64.256 0.236 8.12 863.37 9.56
9/8/2021 3:45:00 PM 17.83 64.094 0.23 8.04 841.03 9.42
9/8/2021 4:00:00 PM 17.78 64.004 0.229 8.01 824.93 9.43
9/8/2021 4:15:00 PM 17.74 63.932 0.227 7.96 666.74 9.32
9/8/2021 4:30:00 PM 17.84 64.112 0.213 7.89 969.98 9.16
9/8/2021 4:45:00 PM 17.9 64.22 0.205 7.85 1044.94 9.09
9/8/2021 5:00:00 PM 17.84 64.112 0.209 7.86 1049.95 9.25
9/8/2021 5:15:00 PM 17.73 63.914 0.217 7.86 1025.78 9.29
9/8/2021 5:30:00 PM 17.6 63.68 0.225 7.89 889.31 9.46
9/8/2021 5:45:00 PM 17.47 63.446 0.23 7.89 684.89 9.44
9/8/2021 6:00:00 PM 17.37 63.266 0.232 7.9 652.78 9.51
9/8/2021 6:15:00 PM 17.3 63.14 0.232 7.89 760.73 9.46
9/8/2021 6:30:00 PM 17.26 63.068 0.231 7.92 785.91 9.68
9/8/2021 6:45:00 PM 17.2 62.96 0.229 7.91 787.36 9.61
9/8/2021 7:00:00 PM 17.16 62.888 0.228 7.9 827.57 9.64
9/8/2021 7:15:00 PM 17.1 62.78 0.229 7.88 823.95 9.52
9/8/2021 7:30:00 PM 17.05 62.69 0.228 7.86 809.14 9.45
9/8/2021 7:45:00 PM 17 62.6 0.225 7.84 667.42 9.38
9/8/2021 8:00:00 PM 16.95 62.51 0.222 7.83 690.04 9.35
9/8/2021 8:15:00 PM 16.9 62.42 0.22 7.82 903.07 9.33
9/8/2021 8:30:00 PM 16.85 62.33 0.219 7.81 719.73 9.33
9/8/2021 8:45:00 PM 16.81 62.258 0.219 7.81 780.1 9.33
9/8/2021 9:00:00 PM 16.76 62.168 0.218 7.81 769.76 9.34
9/8/2021 9:15:00 PM 16.71 62.078 0.215 7.8 628 9.35
9/8/2021 9:30:00 PM 16.66 61.988 0.214 7.79 440.74 9.35
9/8/2021 9:45:00 PM 16.62 61.916 0.214 7.79 446.84 9.38
9/8/2021 10:00:00 PM 16.57 61.826 0.214 7.79 445.2 9.38
9/8/2021 10:15:00 PM 16.54 61.772 0.213 7.79 445.57 9.39
9/8/2021 10:30:00 PM 16.51 61.718 0.214 7.79 539.45 9.41
9/8/2021 10:45:00 PM 16.47 61.646 0.214 7.79 594.54 9.41
9/8/2021 11:00:00 PM 16.42 61.556 0.213 7.79 563.61 9.42
9/8/2021 11:15:00 PM 16.4 61.52 0.213 7.79 523.45 9.44
9/8/2021 11:30:00 PM 16.38 61.484 0.212 7.79 807.44 9.43
9/8/2021 11:45:00 PM 16.35 61.43 0.211 7.78 603.11 9.45
9/9/2021 12:00:00 AM 16.33 61.394 0.211 7.78 810.58 9.45
9/9/2021 12:15:00 AM 16.31 61.358 0.211 7.78 699.21 9.45
9/9/2021 12:30:00 AM 16.29 61.322 0.211 7.78 493.34 9.46
9/9/2021 12:45:00 AM 16.25 61.25 0.211 7.78 456.83 9.47
9/9/2021 1:00:00 AM 16.24 61.232 0.211 7.78 439.56 9.47
9/9/2021 1:15:00 AM 16.22 61.196 0.211 7.78 395.36 9.48
9/9/2021 1:30:00 AM 16.21 61.178 0.211 7.78 652.98 9.47
9/9/2021 1:45:00 AM 16.2 61.16 0.211 7.78 743.67 9.47
9/9/2021 2:00:00 AM 16.18 61.124 0.211 7.78 706.97 9.48
9/9/2021 2:15:00 AM 16.16 61.088 0.211 7.78 754.58 9.48
9/9/2021 2:30:00 AM 16.14 61.052 0.211 7.78 702.41 9.49
9/9/2021 2:45:00 AM 16.13 61.034 0.211 7.78 628.68 9.48
9/9/2021 3:00:00 AM 16.11 60.998 0.212 7.77 641.66 9.48
9/9/2021 3:15:00 AM 16.09 60.962 0.212 7.77 641.27 9.49
9/9/2021 3:30:00 AM 16.07 60.926 0.212 7.77 597.71 9.49
9/9/2021 3:45:00 AM 16.04 60.872 0.212 7.77 552.14 9.49
9/9/2021 4:00:00 AM 16.03 60.854 0.212 7.77 557.09 9.49
9/9/2021 4:15:00 AM 16.01 60.818 0.212 7.77 504.17 9.5
9/9/2021 4:30:00 AM 15.98 60.764 0.213 7.77 496.54 9.5
9/9/2021 4:45:00 AM 15.97 60.746 0.213 7.77 611.22 9.5
9/9/2021 5:00:00 AM 15.96 60.728 0.213 7.77 613.57 9.5
9/9/2021 5:15:00 AM 15.94 60.692 0.214 7.77 608.09 9.51
9/9/2021 5:30:00 AM 15.92 60.656 0.214 7.77 607.55 9.51
9/9/2021 5:45:00 AM 15.9 60.62 0.214 7.77 614.84 9.51
9/9/2021 6:00:00 AM 15.88 60.584 0.215 7.77 619.83 9.51
9/9/2021 6:15:00 AM 15.86 60.548 0.215 7.77 742.9 9.51
9/9/2021 6:30:00 AM 15.83 60.494 0.215 7.77 713.6 9.52
9/9/2021 6:45:00 AM 15.81 60.458 0.215 7.77 633.17 9.54
9/9/2021 7:00:00 AM 15.77 60.386 0.215 7.77 597.08 9.59
9/9/2021 7:15:00 AM 15.75 60.35 0.215 7.78 598.48 9.68
9/9/2021 7:30:00 AM 15.73 60.314 0.216 7.8 586.06 9.79
9/9/2021 7:45:00 AM 15.71 60.278 0.216 7.82 586.95 9.9
9/9/2021 8:00:00 AM 15.71 60.278 0.215 7.84 602.49 10.05
9/9/2021 8:15:00 AM 15.72 60.296 0.215 7.88 624.28 10.28
9/9/2021 8:30:00 AM 15.73 60.314 0.209 7.93 605.98 10.45
9/9/2021 8:45:00 AM 15.76 60.368 0.199 7.97 646.94 10.62
9/9/2021 9:00:00 AM 15.82 60.476 0.168 8.01 646.34 10.71
9/9/2021 9:15:00 AM 15.88 60.584 0.086 8.06 638.5 10.84
9/9/2021 9:30:00 AM 15.98 60.764 0.079 8.12 639.08 11.03
9/9/2021 9:45:00 AM 16.1 60.98 0.076 8.22 640.26 11.32
9/9/2021 10:00:00 AM 16.21 61.178 0.076 8.3 664.75 11.49
9/9/2021 10:15:00 AM 16.34 61.412 0.076 8.38 698.6 11.66
9/9/2021 10:30:00 AM 16.5 61.7 0.076 8.43 674.79 11.69
9/9/2021 10:45:00 AM 16.68 62.024 0.076 8.48 674.7 11.76
9/9/2021 11:00:00 AM 16.78 62.204 0.076 8.52 666.89 11.79
9/9/2021 11:15:00 AM 16.92 62.456 0.076 8.55 667.26 11.82
9/9/2021 11:30:00 AM 17.15 62.87 0.076 8.61 666.76 11.89
9/9/2021 11:45:00 AM 17.39 63.302 0.076 8.64 667.04 11.91
9/9/2021 12:00:00 PM 17.57 63.626 0.076 8.68 672.04 11.97
9/9/2021 12:15:00 PM 17.59 63.662 0.076 8.71 673.29 11.95
9/9/2021 12:30:00 PM 17.7 63.86 0.076 8.74 674.31 11.94
9/9/2021 12:45:00 PM 17.79 64.022 0.076 8.76 672.83 11.91
9/9/2021 1:00:00 PM 17.91 64.238 0.076 8.78 670.45 11.93
9/9/2021 1:15:00 PM 18.02 64.436 0.076 8.8 679.05 11.92
9/9/2021 1:30:00 PM 18.12 64.616 0.076 8.81 691.09 11.9
9/9/2021 1:45:00 PM 18.25 64.85 0.076 8.83 1111.9 11.91
9/9/2021 2:00:00 PM 18.4 65.12 0.076 8.85 1115.6 11.91
9/9/2021 2:15:00 PM 18.38 65.084 0.075 8.85 1113.66 11.85
9/9/2021 2:30:00 PM 18.41 65.138 0.076 8.84 1135.94 11.75
9/9/2021 2:45:00 PM 18.45 65.21 0.076 8.82 1151.2 11.62
9/9/2021 3:00:00 PM 18.42 65.156 0.076 8.76 1128.24 11.23
9/9/2021 3:15:00 PM 18.36 65.048 0.076 8.65 1121.61 10.78
9/9/2021 3:30:00 PM 18.37 65.066 0.076 8.63 1116.32 10.85
9/9/2021 3:45:00 PM 18.4 65.12 0.076 8.62 1101.31 10.93
9/9/2021 4:00:00 PM 18.38 65.084 0.076 8.59 1081.02 10.93
9/9/2021 4:15:00 PM 18.28 64.904 0.076 8.46 1040.15 10.33
9/9/2021 4:30:00 PM 18.19 64.742 0.076 8.41 1011.64 10.39
9/9/2021 4:45:00 PM 18.12 64.616 0.076 8.35 912.7 10.22
9/9/2021 5:00:00 PM 18.09 64.562 0.076 8.35 938.69 10.41
9/9/2021 5:15:00 PM 18.12 64.616 0.076 8.41 996.03 10.67
9/9/2021 5:30:00 PM 18.13 64.634 0.076 8.43 971.42 10.74
9/9/2021 5:45:00 PM 18.07 64.526 0.077 8.41 993.4 10.66
9/9/2021 6:00:00 PM 18.02 64.436 0.077 8.38 983.95 10.6
9/9/2021 6:15:00 PM 17.96 64.328 0.077 8.33 981.69 10.47
9/9/2021 6:30:00 PM 17.89 64.202 0.077 8.28 952.05 10.37
9/9/2021 6:45:00 PM 17.82 64.076 0.077 8.21 940.34 10.2
9/9/2021 7:00:00 PM 17.74 63.932 0.077 8.12 932.28 9.98
9/9/2021 7:15:00 PM 17.67 63.806 0.077 8.05 892.76 9.73
9/9/2021 7:30:00 PM 17.58 63.644 0.077 7.96 843.03 9.47
9/9/2021 7:45:00 PM 17.49 63.482 0.077 7.91 864.21 9.32
9/9/2021 8:00:00 PM 17.41 63.338 0.077 7.87 843.34 9.21
9/9/2021 8:15:00 PM 17.34 63.212 0.077 7.84 1178 9.16
9/9/2021 8:30:00 PM 17.29 63.122 0.077 7.82 1135.08 9.14
9/9/2021 8:45:00 PM 17.23 63.014 0.077 7.81 1160.06 9.13
9/9/2021 9:00:00 PM 17.15 62.87 0.077 7.8 1220.95 9.14
9/9/2021 9:15:00 PM 17.08 62.744 0.077 7.8 1709.03 9.14
9/9/2021 9:30:00 PM 17.01 62.618 0.077 7.79 1626.54 9.16
9/9/2021 9:45:00 PM 16.94 62.492 0.077 7.79 1697.27 9.18
9/9/2021 10:00:00 PM 16.88 62.384 0.077 7.78 1678.71 9.17
9/9/2021 10:15:00 PM 16.81 62.258 0.076 7.77 1643.27 9.14
9/9/2021 10:30:00 PM 16.75 62.15 0.076 7.76 1763.66 9.16
9/9/2021 10:45:00 PM 16.67 62.006 0.076 7.76 1813.1 9.2
9/9/2021 11:00:00 PM 16.58 61.844 0.076 7.78 1730.9 9.27
9/9/2021 11:15:00 PM 16.48 61.664 0.076 7.8 1740.5 9.35
9/9/2021 11:30:00 PM 16.38 61.484 0.076 7.82 1962.54 9.43
9/9/2021 11:45:00 PM 16.29 61.322 0.075 7.83 1864.43 9.5
9/10/2021 12:00:00 AM 16.2 61.16 0.073 7.84 1227.07 9.55
9/10/2021 12:15:00 AM 16.16 61.088 0.071 7.83 1024.52 9.58
9/10/2021 12:30:00 AM 16.12 61.016 0.072 7.82 1118.92 9.59
9/10/2021 12:45:00 AM 16.08 60.944 0.068 7.81 1499.83 9.6
9/10/2021 1:00:00 AM 16.02 60.836 0.068 7.81 1400.95 9.63
9/10/2021 1:15:00 AM 15.97 60.746 0.068 7.81 1294.39 9.65
9/10/2021 1:30:00 AM 15.95 60.71 0.068 7.8 1491.24 9.66
9/10/2021 1:45:00 AM 15.93 60.674 0.068 7.8 1079.08 9.66
9/10/2021 2:00:00 AM 15.91 60.638 0.069 7.8 1410.56 9.67
9/10/2021 2:15:00 AM 15.9 60.62 0.069 7.8 1112.34 9.67
9/10/2021 2:30:00 AM 15.88 60.584 0.068 7.79 2333.85 9.67
9/10/2021 2:45:00 AM 15.87 60.566 0.068 7.8 1402.06 9.67
9/10/2021 3:00:00 AM 15.85 60.53 0.068 7.8 1517.6 9.67
9/10/2021 3:15:00 AM 15.84 60.512 0.068 7.8 1584.46 9.67
9/10/2021 3:30:00 AM 15.81 60.458 0.069 7.8 1610.62 9.67
9/10/2021 3:45:00 AM 15.76 60.368 0.069 7.8 1593.64 9.68
9/10/2021 4:00:00 AM 15.71 60.278 0.069 7.8 2490.12 9.69
9/10/2021 4:15:00 AM 15.66 60.188 0.069 7.79 3235.02 9.7
9/10/2021 4:30:00 AM 15.6 60.08 0.07 7.79 1674.43 9.71
9/10/2021 4:45:00 AM 15.54 59.972 0.069 7.79 1710.36 9.72
9/10/2021 5:00:00 AM 15.48 59.864 0.069 7.79 1862.61 9.73
9/10/2021 5:15:00 AM 15.42 59.756 0.069 7.79 1841.84 9.74
9/10/2021 5:30:00 AM 15.35 59.63 0.069 7.79 1853.27 9.75
9/10/2021 5:45:00 AM 15.3 59.54 0.069 7.78 1693.32 9.76
9/10/2021 6:00:00 AM 15.23 59.414 0.069 7.78 2028.19 9.78
9/10/2021 6:15:00 AM 15.17 59.306 0.069 7.78 1644.76 9.79
9/10/2021 6:30:00 AM 15.11 59.198 0.068 7.78 1645.91 9.81
9/10/2021 6:45:00 AM 15.05 59.09 0.068 7.79 1969.37 9.85
9/10/2021 7:00:00 AM 14.99 58.982 0.068 7.79 1741.36 9.92
9/10/2021 7:15:00 AM 14.94 58.892 0.068 7.8 1574.02 9.99
9/10/2021 7:30:00 AM 14.89 58.802 0.068 7.81 1503.36 10.08
9/10/2021 7:45:00 AM 14.85 58.73 0.067 7.83 1497.89 10.16
9/10/2021 8:00:00 AM 14.83 58.694 0.068 7.84 1687.59 10.25
9/10/2021 8:15:00 AM 14.82 58.676 0.068 7.86 1471.4 10.35
9/10/2021 8:30:00 AM 14.82 58.676 0.068 7.89 1553.77 10.46
9/10/2021 8:45:00 AM 14.82 58.676 0.068 7.9 1596 10.54
9/10/2021 9:00:00 AM 14.89 58.802 0.068 7.95 2480.86 10.74
9/10/2021 9:15:00 AM 14.94 58.892 0.068 7.99 2923.78 10.84
9/10/2021 9:30:00 AM 15.02 59.036 0.068 8.03 2758.93 10.96
9/10/2021 9:45:00 AM 15.12 59.216 0.068 8.08 1624.53 11.03
9/10/2021 10:00:00 AM 15.15 59.27 0.068 8.09 2426.54 11.01
9/10/2021 10:15:00 AM 15.31 59.558 0.068 8.13 2635.35 11.07
9/10/2021 10:30:00 AM 15.42 59.756 0.068 8.17 2339.47 11.13
9/10/2021 10:45:00 AM 15.55 59.99 0.068 8.2 1543.9 11.17
9/10/2021 11:00:00 AM 15.69 60.242 0.068 8.23 1627.99 11.2
9/10/2021 11:15:00 AM 15.86 60.548 0.068 8.27 1745.92 11.26
9/10/2021 11:30:00 AM 16.03 60.854 0.068 8.31 1706.44 11.31
9/10/2021 11:45:00 AM 16.12 61.016 0.068 8.34 1726.2 11.31
9/10/2021 12:00:00 PM 16.33 61.394 0.068 8.37 1765.63 11.33
9/10/2021 12:15:00 PM 16.49 61.682 0.069 8.41 1751.47 11.35
9/10/2021 12:30:00 PM 16.67 62.006 0.069 8.44 1832.09 11.34
9/10/2021 12:45:00 PM 16.84 62.312 0.068 8.47 1668.29 11.35
9/10/2021 1:00:00 PM 16.98 62.564 0.068 8.5 1660.67 11.39
9/10/2021 1:15:00 PM 16.95 62.51 0.068 8.5 1683.28 11.34
9/10/2021 1:30:00 PM 17.16 62.888 0.069 8.54 1672.49 11.42
9/10/2021 1:45:00 PM 17.3 63.14 0.069 8.57 1726.98 11.4
9/10/2021 2:00:00 PM 17.44 63.392 0.069 8.58 1746.89 11.38
9/10/2021 2:15:00 PM 17.44 63.392 0.069 8.59 1763.69 11.32
9/10/2021 2:30:00 PM 17.57 63.626 0.069 8.56 1763.55 11.23
9/10/2021 2:45:00 PM 17.56 63.608 0.069 8.54 1787.6 11.04
9/10/2021 3:00:00 PM 17.66 63.788 0.069 8.53 1790.11 11.11
9/10/2021 3:15:00 PM 17.75 63.95 0.069 8.55 1754.57 11.18
9/10/2021 3:30:00 PM 17.89 64.202 0.069 8.59 2692.07 11.29
9/10/2021 3:45:00 PM 17.89 64.202 0.069 8.58 2072.58 11.24
9/10/2021 4:00:00 PM 17.82 64.076 0.069 8.55 1882.48 11.06
9/10/2021 4:15:00 PM 17.79 64.022 0.07 8.52 2132.04 11
9/10/2021 4:30:00 PM 17.75 63.95 0.07 8.49 1979.72 10.95
9/10/2021 4:45:00 PM 17.63 63.734 0.07 8.43 1654.47 10.81
9/10/2021 5:00:00 PM 17.6 63.68 0.07 8.43 1709.77 10.86
9/10/2021 5:15:00 PM 17.52 63.536 0.07 8.38 1636.83 10.73
9/10/2021 5:30:00 PM 17.46 63.428 0.07 8.35 1570.4 10.65
9/10/2021 5:45:00 PM 17.34 63.212 0.07 8.24 1398.82 10.39
9/10/2021 6:00:00 PM 17.32 63.176 0.07 8.22 2093.28 10.4
9/10/2021 6:15:00 PM 17.22 62.996 0.071 8.16 1578.76 10.25
9/10/2021 6:30:00 PM 17.14 62.852 0.071 8.1 1235.4 10.11
9/10/2021 6:45:00 PM 17.03 62.654 0.071 8.02 2372.46 9.94
9/10/2021 7:00:00 PM 16.92 62.456 0.071 7.97 1742.79 9.83
9/10/2021 7:15:00 PM 16.81 62.258 0.071 7.92 1412.77 9.7
9/10/2021 7:30:00 PM 16.69 62.042 0.072 7.89 1449.11 9.59
9/10/2021 7:45:00 PM 16.58 61.844 0.072 7.85 1329.67 9.53
9/10/2021 8:00:00 PM 16.47 61.646 0.072 7.83 1746.14 9.49
9/10/2021 8:15:00 PM 16.35 61.43 0.072 7.81 1693.87 9.48
9/10/2021 8:30:00 PM 16.23 61.214 0.072 7.8 1697.88 9.48
9/10/2021 8:45:00 PM 16.11 60.998 0.072 7.79 1578.41 9.48
9/10/2021 9:00:00 PM 16 60.8 0.072 7.78 1463.03 9.5
9/10/2021 9:15:00 PM 15.89 60.602 0.072 7.78 1584.23 9.52
9/10/2021 9:30:00 PM 15.78 60.404 0.072 7.77 1528.88 9.53
9/10/2021 9:45:00 PM 15.68 60.224 0.072 7.77 1516.71 9.55
9/10/2021 10:00:00 PM 15.58 60.044 0.072 7.76 1649.41 9.58
9/10/2021 10:15:00 PM 15.48 59.864 0.073 7.76 1524.68 9.59
9/10/2021 10:30:00 PM 15.39 59.702 0.073 7.76 1523.34 9.61
9/10/2021 10:45:00 PM 15.3 59.54 0.073 7.76 1517.97 9.62
9/10/2021 11:00:00 PM 15.21 59.378 0.073 7.76 1472.39 9.64
9/10/2021 11:15:00 PM 15.12 59.216 0.073 7.75 1242.51 9.67
9/10/2021 11:30:00 PM 15.04 59.072 0.073 7.75 1030.44 9.68
9/10/2021 11:45:00 PM 14.96 58.928 0.073 7.75 1084.59 9.71
9/11/2021 12:00:00 AM 14.88 58.784 0.073 7.75 1335.4 9.72
9/11/2021 12:15:00 AM 14.8 58.64 0.073 7.75 941.52 9.75
9/11/2021 12:30:00 AM 14.72 58.496 0.073 7.75 896.19 9.76
9/11/2021 12:45:00 AM 14.65 58.37 0.073 7.75 920.44 9.77
9/11/2021 1:00:00 AM 14.58 58.244 0.073 7.66 975.56 9.79
9/11/2021 1:15:00 AM 14.51 58.118 0.073 7.7 932.08 9.81
9/11/2021 1:30:00 AM 14.44 57.992 0.074 7.72 875.89 9.82
9/11/2021 1:45:00 AM 14.37 57.866 0.074 7.73 863.49 9.84
9/11/2021 2:00:00 AM 14.31 57.758 0.074 7.73 861.65 9.86
9/11/2021 2:15:00 AM 14.24 57.632 0.074 7.73 847.92 9.87
9/11/2021 2:30:00 AM 14.18 57.524 0.074 7.73 819.62 9.88
9/11/2021 2:45:00 AM 14.12 57.416 0.074 7.73 663.59 9.89
9/11/2021 3:00:00 AM 14.06 57.308 0.074 7.73 699.48 9.91
9/11/2021 3:15:00 AM 14.01 57.218 0.074 7.74 887.89 9.93
9/11/2021 3:30:00 AM 13.95 57.11 0.074 7.74 866.43 9.94
9/11/2021 3:45:00 AM 13.9 57.02 0.074 7.73 776.42 9.95
9/11/2021 4:00:00 AM 13.84 56.912 0.074 7.74 835.37 9.98
9/11/2021 4:15:00 AM 13.79 56.822 0.074 7.74 781.95 9.98
9/11/2021 4:30:00 AM 13.74 56.732 0.074 7.74 829.08 10
9/11/2021 4:45:00 AM 13.69 56.642 0.074 7.74 704.72 10.01
9/11/2021 5:00:00 AM 13.65 56.57 0.074 7.74 837.2 10.02
9/11/2021 5:15:00 AM 13.6 56.48 0.074 7.74 800.38 10.03
9/11/2021 5:30:00 AM 13.57 56.426 0.074 7.74 868.13 10.04
9/11/2021 5:45:00 AM 13.53 56.354 0.074 7.74 804.61 10.04
9/11/2021 6:00:00 AM 13.48 56.264 0.074 7.75 811.72 10.06
9/11/2021 6:15:00 AM 13.44 56.192 0.074 7.74 814.14 10.06
9/11/2021 6:30:00 AM 13.4 56.12 0.074 7.74 866.37 10.08
9/11/2021 6:45:00 AM 13.36 56.048 0.074 7.75 941.83 10.14
9/11/2021 7:00:00 AM 13.33 55.994 0.074 7.76 957.97 10.26
9/11/2021 7:15:00 AM 13.31 55.958 0.074 7.78 969.05 10.4
9/11/2021 7:30:00 AM 13.29 55.922 0.074 7.81 1007.79 10.59
9/11/2021 7:45:00 AM 13.3 55.94 0.074 7.85 956.26 10.83
9/11/2021 8:00:00 AM 13.33 55.994 0.074 7.9 968.78 11.09
9/11/2021 8:15:00 AM 13.35 56.03 0.075 7.94 977.08 11.2
9/11/2021 8:30:00 AM 13.38 56.084 0.075 7.96 1004.74 11.26
9/11/2021 8:45:00 AM 13.45 56.21 0.075 8.01 992.25 11.44
9/11/2021 9:00:00 AM 13.55 56.39 0.074 8.07 1095.23 11.58
9/11/2021 9:15:00 AM 13.67 56.606 0.074 8.12 1044.13 11.73
9/11/2021 9:30:00 AM 13.79 56.822 0.075 8.17 1048.66 11.83
9/11/2021 9:45:00 AM 13.93 57.074 0.074 8.21 1118.86 11.88
9/11/2021 10:00:00 AM 14.09 57.362 0.074 8.26 1094.36 11.96
9/11/2021 10:15:00 AM 14.23 57.614 0.074 8.31 1106.49 12.02
9/11/2021 10:30:00 AM 14.41 57.938 0.074 8.34 1153.14 12.06
9/11/2021 10:45:00 AM 14.63 58.334 0.074 8.37 1235.16 12.01
9/11/2021 11:00:00 AM 14.83 58.694 0.074 8.39 1178.6 12
9/11/2021 11:15:00 AM 15.02 59.036 0.074 8.42 1212.48 11.99
9/11/2021 11:30:00 AM 15.24 59.432 0.074 8.44 1229.49 11.99
9/11/2021 11:45:00 AM 15.48 59.864 0.075 8.47 1239.26 12.01
9/11/2021 12:00:00 PM 15.69 60.242 0.074 8.51 1264.93 12.01
9/11/2021 12:15:00 PM 15.96 60.728 0.074 8.55 1221.87 12.06
9/11/2021 12:30:00 PM 16.21 61.178 0.074 8.58 1379.2 12.07
9/11/2021 12:45:00 PM 16.32 61.376 0.074 8.59 1355.52 11.94
9/11/2021 1:00:00 PM 16.48 61.664 0.074 8.6 1395.43 11.94
9/11/2021 1:15:00 PM 16.76 62.168 0.074 8.64 1456.97 11.98
9/11/2021 1:30:00 PM 16.96 62.528 0.075 8.66 1244.55 11.96
9/11/2021 1:45:00 PM 17.14 62.852 0.075 8.68 1265.91 11.94
9/11/2021 2:00:00 PM 17.3 63.14 0.074 8.7 1336.38 11.9
9/11/2021 2:15:00 PM 17.39 63.302 0.075 8.7 1326.03 11.82
9/11/2021 2:30:00 PM 17.56 63.608 0.075 8.71 1327.22 11.78
9/11/2021 2:45:00 PM 17.67 63.806 0.075 8.71 1302.77 11.74
9/11/2021 3:00:00 PM 17.85 64.13 0.075 8.74 1286.75 11.79
9/11/2021 3:15:00 PM 17.99 64.382 0.075 8.74 1264.46 11.76
9/11/2021 3:30:00 PM 18.16 64.688 0.075 8.77 1241.33 11.75
9/11/2021 3:45:00 PM 18.24 64.832 0.075 8.77 1335.64 11.68
9/11/2021 4:00:00 PM 18.33 64.994 0.075 8.77 1316.48 11.64
9/11/2021 4:15:00 PM 18.38 65.084 0.075 8.76 1338.59 11.53
9/11/2021 4:30:00 PM 18.29 64.922 0.075 8.71 1315.31 11.3
9/11/2021 4:45:00 PM 18.29 64.922 0.075 8.7 1343.76 11.27
9/11/2021 5:00:00 PM 18.33 64.994 0.075 8.68 1328.13 11.21
9/11/2021 5:15:00 PM 18.33 64.994 0.075 8.66 1271.98 11.15
9/11/2021 5:30:00 PM 18.34 65.012 0.075 8.64 1336.83 11.1
9/11/2021 5:45:00 PM 18.27 64.886 0.075 8.59 1288.9 10.88
9/11/2021 6:00:00 PM 18.18 64.724 0.076 8.52 1322.58 10.67
9/11/2021 6:15:00 PM 18.06 64.508 0.076 8.42 1318.48 10.42
9/11/2021 6:30:00 PM 17.94 64.292 0.076 8.3 1348.41 10.16
9/11/2021 6:45:00 PM 17.82 64.076 0.076 8.19 1389.1 9.93
9/11/2021 7:00:00 PM 17.71 63.878 0.076 8.1 1328.2 9.7
9/11/2021 7:15:00 PM 17.58 63.644 0.076 8.01 1327.9 9.51
9/11/2021 7:30:00 PM 17.46 63.428 0.076 7.95 1330.41 9.34
9/11/2021 7:45:00 PM 17.35 63.23 0.076 7.9 1410.88 9.24
9/11/2021 8:00:00 PM 17.24 63.032 0.076 7.87 1312.59 9.19
9/11/2021 8:15:00 PM 17.13 62.834 0.077 7.84 1350.21 9.16
9/11/2021 8:30:00 PM 17.03 62.654 0.077 7.82 1327.73 9.16
9/11/2021 8:45:00 PM 16.93 62.474 0.077 7.81 1329.72 9.17
9/11/2021 9:00:00 PM 16.84 62.312 0.077 7.8 1348.59 9.18
9/11/2021 9:15:00 PM 16.74 62.132 0.077 7.79 1389.71 9.19
9/11/2021 9:30:00 PM 16.65 61.97 0.077 7.79 1393.73 9.21
9/11/2021 9:45:00 PM 16.56 61.808 0.077 7.78 1373.2 9.23
9/11/2021 10:00:00 PM 16.47 61.646 0.077 7.78 1473.81 9.24
9/11/2021 10:15:00 PM 16.39 61.502 0.077 7.78 1538.92 9.26
9/11/2021 10:30:00 PM 16.3 61.34 0.077 7.77 1540.68 9.28
9/11/2021 10:45:00 PM 16.21 61.178 0.077 7.77 1532.48 9.29
9/11/2021 11:00:00 PM 16.13 61.034 0.077 7.77 1054.51 9.31
9/11/2021 11:15:00 PM 16.04 60.872 0.077 7.76 1047.04 9.33
9/11/2021 11:30:00 PM 15.99 60.782 0.077 7.76 1073.4 9.34
9/11/2021 11:45:00 PM 15.95 60.71 0.077 7.76 1025.9 9.36
9/12/2021 12:00:00 AM 15.89 60.602 0.078 7.76 1003.21 9.37
9/12/2021 12:15:00 AM 15.86 60.548 0.078 7.76 985.71 9.38
9/12/2021 12:30:00 AM 15.82 60.476 0.078 7.76 998.08 9.39
9/12/2021 12:45:00 AM 15.78 60.404 0.078 7.76 1149.7 9.39
9/12/2021 1:00:00 AM 15.75 60.35 0.078 7.76 1078.25 9.39
9/12/2021 1:15:00 AM 15.71 60.278 0.078 7.75 1053.4 9.41
9/12/2021 1:30:00 AM 15.66 60.188 0.078 7.75 978.07 9.41
9/12/2021 1:45:00 AM 15.63 60.134 0.078 7.75 994.74 9.42
9/12/2021 2:00:00 AM 15.61 60.098 0.078 7.76 961.02 9.44
9/12/2021 2:15:00 AM 15.59 60.062 0.078 7.75 958.67 9.44
9/12/2021 2:30:00 AM 15.55 59.99 0.078 7.76 952.24 9.45
9/12/2021 2:45:00 AM 15.54 59.972 0.078 7.76 1095.13 9.45
9/12/2021 3:00:00 AM 15.53 59.954 0.078 7.75 1427.33 9.45
9/12/2021 3:15:00 AM 15.51 59.918 0.078 7.75 1402.78 9.46
9/12/2021 3:30:00 AM 15.49 59.882 0.078 7.75 1692.39 9.47
9/12/2021 3:45:00 AM 15.47 59.846 0.078 7.75 1832.3 9.47
9/12/2021 4:00:00 AM 15.44 59.792 0.078 7.75 1876.13 9.45
9/12/2021 4:15:00 AM 15.41 59.738 0.078 7.75 1926.04 9.47
9/12/2021 4:30:00 AM 15.39 59.702 0.078 7.75 1813.31 9.48
9/12/2021 4:45:00 AM 15.37 59.666 0.079 7.75 1816.08 9.48
9/12/2021 5:00:00 AM 15.36 59.648 0.079 7.75 1724.91 9.48
9/12/2021 5:15:00 AM 15.33 59.594 0.079 7.75 1130.11 9.48
9/12/2021 5:30:00 AM 15.3 59.54 0.079 7.75 1161.35 9.49
9/12/2021 5:45:00 AM 15.27 59.486 0.079 7.75 1153.7 9.5
9/12/2021 6:00:00 AM 15.24 59.432 0.079 7.75 1229.06 9.5
9/12/2021 6:15:00 AM 15.21 59.378 0.079 7.75 1218.73 9.5
9/12/2021 6:30:00 AM 15.18 59.324 0.079 7.75 1248.49 9.51
9/12/2021 6:45:00 AM 15.15 59.27 0.079 7.75 1286.52 9.55
9/12/2021 7:00:00 AM 15.12 59.216 0.079 7.76 1303.3 9.64
9/12/2021 7:15:00 AM 15.11 59.198 0.079 7.79 1306.57 9.81
9/12/2021 7:30:00 AM 15.1 59.18 0.079 7.82 1696.63 10.05
9/12/2021 7:45:00 AM 15.13 59.234 0.078 7.87 1553.86 10.38
9/12/2021 8:00:00 AM 15.17 59.306 0.078 7.93 1469.71 10.69
9/12/2021 8:15:00 AM 15.19 59.342 0.078 7.97 1492.91 10.82
9/12/2021 8:30:00 AM 15.21 59.378 0.078 8.02 1492.02 10.98
9/12/2021 8:45:00 AM 15.26 59.468 0.078 8.09 1539.5 11.23
9/12/2021 9:00:00 AM 15.33 59.594 0.078 8.17 1478.23 11.48
9/12/2021 9:15:00 AM 15.47 59.846 0.078 8.27 1576.16 11.78
9/12/2021 9:30:00 AM 15.53 59.954 0.078 8.3 1554.97 11.72
9/12/2021 9:45:00 AM 15.55 59.99 0.078 8.24 1484.97 11.36
9/12/2021 10:00:00 AM 15.61 60.098 0.078 8.24 1554.96 11.33
9/12/2021 10:15:00 AM 15.7 60.26 0.078 8.3 1660.88 11.55
9/12/2021 10:30:00 AM 15.84 60.512 0.078 8.39 1503.02 11.88
9/12/2021 10:45:00 AM 16.02 60.836 0.078 8.47 1441.85 12.09
9/12/2021 11:00:00 AM 16.21 61.178 0.078 8.55 1448.76 12.28
9/12/2021 11:15:00 AM 16.43 61.574 0.078 8.63 1552.35 12.43
9/12/2021 11:30:00 AM 16.61 61.898 0.078 8.69 1559.14 12.5
9/12/2021 11:45:00 AM 16.66 61.988 0.078 8.68 1554.14 12.23
9/12/2021 12:00:00 PM 16.73 62.114 0.078 8.68 1558.52 12.06
9/12/2021 12:15:00 PM 16.9 62.42 0.078 8.72 1444.44 12.18
9/12/2021 12:30:00 PM 17.07 62.726 0.078 8.75 1470.63 12.26
9/12/2021 12:45:00 PM 17.13 62.834 0.078 8.76 1462.57 12.17
9/12/2021 1:00:00 PM 17.17 62.906 0.078 8.74 1315.48 11.99
9/12/2021 1:15:00 PM 17.19 62.942 0.078 8.7 1298.42 11.66
9/12/2021 1:30:00 PM 17.2 62.96 0.078 8.64 1380.08 11.4
9/12/2021 1:45:00 PM 17.27 63.086 0.078 8.64 1357.44 11.47
9/12/2021 2:00:00 PM 17.36 63.248 0.078 8.66 1442.36 11.57
9/12/2021 2:15:00 PM 17.48 63.464 0.077 8.69 1302.72 11.75
9/12/2021 2:30:00 PM 17.61 63.698 0.077 8.74 1361.86 11.92
9/12/2021 2:45:00 PM 17.62 63.716 0.077 8.71 1270.84 11.67
9/12/2021 3:00:00 PM 17.61 63.698 0.077 8.67 1370.16 11.4
9/12/2021 3:15:00 PM 17.61 63.698 0.077 8.62 1376.68 11.16
9/12/2021 3:30:00 PM 17.6 63.68 0.078 8.57 1297.35 10.98
9/12/2021 3:45:00 PM 17.59 63.662 0.078 8.5 1284.52 10.79
9/12/2021 4:00:00 PM 17.57 63.626 0.078 8.42 1463.91 10.6
9/12/2021 4:15:00 PM 17.56 63.608 0.078 8.34 1466.29 10.42
9/12/2021 4:30:00 PM 17.53 63.554 0.078 8.28 1498.11 10.31
9/12/2021 4:45:00 PM 17.52 63.536 0.078 8.25 1507.81 10.35
9/12/2021 5:00:00 PM 17.51 63.518 0.078 8.21 1487.44 10.23
9/12/2021 5:15:00 PM 17.46 63.428 0.078 8.12 1546.15 9.96
9/12/2021 5:30:00 PM 17.42 63.356 0.078 8.04 1402.38 9.74
9/12/2021 5:45:00 PM 17.38 63.284 0.078 7.97 1365.96 9.55
9/12/2021 6:00:00 PM 17.36 63.248 0.079 7.94 1326.07 9.53
9/12/2021 6:15:00 PM 17.32 63.176 0.079 7.91 1319.67 9.48
9/12/2021 6:30:00 PM 17.29 63.122 0.079 7.88 1358.9 9.42
9/12/2021 6:45:00 PM 17.25 63.05 0.079 7.84 1326.52 9.29
9/12/2021 7:00:00 PM 17.22 62.996 0.079 7.81 1647.63 9.21
9/12/2021 7:15:00 PM 17.18 62.924 0.079 7.79 1909.23 9.16
9/12/2021 7:30:00 PM 17.15 62.87 0.079 7.78 1318.78 9.12
9/12/2021 7:45:00 PM 17.12 62.816 0.079 7.77 1464.95 9.09
9/12/2021 8:00:00 PM 17.09 62.762 0.079 7.75 1476.63 9.09
9/12/2021 8:15:00 PM 17.06 62.708 0.079 7.74 1449.74 9.09
9/12/2021 8:30:00 PM 17.04 62.672 0.079 7.74 1410.08 9.09
9/12/2021 8:45:00 PM 17.01 62.618 0.08 7.74 1436.37 9.1
9/12/2021 9:00:00 PM 16.99 62.582 0.08 7.73 1535.31 9.08
9/12/2021 9:15:00 PM 16.96 62.528 0.08 7.73 1584.15 9.11
9/12/2021 9:30:00 PM 16.94 62.492 0.08 7.73 1614.26 9.11
9/12/2021 9:45:00 PM 16.92 62.456 0.08 7.72 1608.8 9.11
9/12/2021 10:00:00 PM 16.89 62.402 0.08 7.72 1721.13 9.11
9/12/2021 10:15:00 PM 16.87 62.366 0.08 7.72 1533.54 9.1
9/12/2021 10:30:00 PM 16.85 62.33 0.08 7.71 1228.02 9.11
9/12/2021 10:45:00 PM 16.83 62.294 0.08 7.7 1132.77 9.11
9/12/2021 11:00:00 PM 16.81 62.258 0.08 7.7 1697.67 9.12
9/12/2021 11:15:00 PM 16.8 62.24 0.08 7.71 1173.91 9.12
9/12/2021 11:30:00 PM 16.79 62.222 0.08 7.71 1138.1 9.12
9/12/2021 11:45:00 PM 16.77 62.186 0.08 7.71 1064.84 9.13
9/13/2021 12:00:00 AM 16.76 62.168 0.08 7.71 1213.01 9.13
9/13/2021 12:15:00 AM 16.75 62.15 0.08 7.71 1207.71 9.14
9/13/2021 12:30:00 AM 16.74 62.132 0.08 7.71 1279.95 9.12
9/13/2021 12:45:00 AM 16.73 62.114 0.08 7.71 1268.89 9.14
9/13/2021 1:00:00 AM 16.72 62.096 0.08 7.71 1350.06 9.14
9/13/2021 1:15:00 AM 16.69 62.042 0.08 7.71 1260.94 9.15
9/13/2021 1:30:00 AM 16.67 62.006 0.08 7.7 1295.09 9.14
9/13/2021 1:45:00 AM 16.67 62.006 0.08 7.7 1435.07 9.13
9/13/2021 2:00:00 AM 16.66 61.988 0.08 7.7 1427.41 9.15
9/13/2021 2:15:00 AM 16.71 62.078 0.079 7.73 1432.95 9.19
9/13/2021 2:30:00 AM 16.7 62.06 0.079 7.73 1535.46 9.16
9/13/2021 2:45:00 AM 16.68 62.024 0.079 7.74 1410.9 9.22
9/13/2021 3:00:00 AM 16.63 61.934 0.077 7.75 1506.01 9.19
9/13/2021 3:15:00 AM 16.64 61.952 0.076 7.75 1899.89 9.16
9/13/2021 3:30:00 AM 16.61 61.898 0.076 7.74 1421.96 9.15
9/13/2021 3:45:00 AM 16.61 61.898 0.074 7.73 1471.21 9.14
9/13/2021 4:00:00 AM 16.56 61.808 0.074 7.73 1519.42 9.14
9/13/2021 4:15:00 AM 16.5 61.7 0.075 7.73 1537.74 9.18
9/13/2021 4:30:00 AM 16.42 61.556 0.076 7.75 1532.7 9.25
9/13/2021 4:45:00 AM 16.34 61.412 0.077 7.77 1453.45 9.35
9/13/2021 5:00:00 AM 16.26 61.268 0.078 7.79 1409.42 9.44
9/13/2021 5:15:00 AM 16.18 61.124 0.078 7.81 1454.07 9.51
9/13/2021 5:30:00 AM 16.12 61.016 0.076 7.82 1541.92 9.57
9/13/2021 5:45:00 AM 16.09 60.962 0.074 7.82 1681.48 9.62
9/13/2021 6:00:00 AM 16.08 60.944 0.071 7.81 2056.1 9.66
9/13/2021 6:15:00 AM 16.01 60.818 0.07 7.82 1643.03 9.71
9/13/2021 6:30:00 AM 15.97 60.746 0.069 7.82 1701.96 9.74
9/13/2021 6:45:00 AM 15.96 60.728 0.069 7.82 1693.57 9.75
9/13/2021 7:00:00 AM 15.93 60.674 0.068 7.82 1683.66 9.77
9/13/2021 7:15:00 AM 15.9 60.62 0.068 7.84 1649.63 9.81
9/13/2021 7:30:00 AM 15.87 60.566 0.067 7.85 1548.79 9.87
9/13/2021 7:45:00 AM 15.85 60.53 0.067 7.85 1643.27 9.93
9/13/2021 8:00:00 AM 15.85 60.53 0.066 7.88 1781.52 10.02
9/13/2021 8:15:00 AM 15.86 60.548 0.066 7.88 1751.63 10.1
9/13/2021 8:30:00 AM 15.88 60.584 0.066 7.91 1596.37 10.21
9/13/2021 8:45:00 AM 15.91 60.638 0.066 7.92 1504.76 10.3
9/13/2021 9:00:00 AM 15.96 60.728 0.066 7.96 1458.57 10.42
9/13/2021 9:15:00 AM 15.99 60.782 0.066 7.98 1453.61 10.47
9/13/2021 9:30:00 AM 16.05 60.89 0.066 8.01 1436.28 10.55
9/13/2021 9:45:00 AM 16.11 60.998 0.066 8.07 1428.6 10.66
9/13/2021 10:00:00 AM 16.16 61.088 0.066 8.1 1458.84 10.69
9/13/2021 10:15:00 AM 16.26 61.268 0.066 8.12 1467.15 10.74
9/13/2021 10:30:00 AM 16.39 61.502 0.066 8.17 1518.36 10.83
9/13/2021 10:45:00 AM 16.51 61.718 0.066 8.2 1461.53 10.88
9/13/2021 11:00:00 AM 16.63 61.934 0.066 8.24 1458.54 10.9
9/13/2021 11:15:00 AM 16.77 62.186 0.066 8.27 1572.76 10.94
9/13/2021 11:30:00 AM 16.89 62.402 0.066 8.31 1503.84 11.01
9/13/2021 11:45:00 AM 17.03 62.654 0.066 8.36 1556.38 11.05
9/13/2021 12:00:00 PM 17.19 62.942 0.066 8.39 1551.99 11.06
9/13/2021 12:15:00 PM 17.36 63.248 0.066 8.42 1466.06 11.07
9/13/2021 12:30:00 PM 17.52 63.536 0.066 8.45 1418.78 11.07
9/13/2021 12:45:00 PM 17.64 63.752 0.066 8.47 1390.08 11.07
9/13/2021 1:00:00 PM 17.81 64.058 0.066 8.5 1443.18 11.08
9/13/2021 1:15:00 PM 17.96 64.328 0.066 8.49 1430.41 11.06
9/13/2021 1:30:00 PM 18.11 64.598 0.066 8.53 1395.1 11.1
9/13/2021 1:45:00 PM 18.11 64.598 0.066 8.53 1355.49 11.01
9/13/2021 2:00:00 PM 18.31 64.958 0.066 8.58 1304.2 11.15
9/13/2021 2:15:00 PM 18.46 65.228 0.066 8.61 1295.49 11.17
9/13/2021 2:30:00 PM 18.47 65.246 0.066 8.62 1303.95 11.08
9/13/2021 2:45:00 PM 18.57 65.426 0.066 8.63 1253.67 11.08
9/13/2021 3:00:00 PM 18.58 65.444 0.066 8.63 1277.41 11.07
9/13/2021 3:15:00 PM 18.76 65.768 0.066 8.68 1224.53 11.16
9/13/2021 3:30:00 PM 18.8 65.84 0.066 8.67 1239.16 11.07
9/13/2021 3:45:00 PM 18.82 65.876 0.066 8.65 1243.73 10.95
9/13/2021 4:00:00 PM 18.83 65.894 0.066 8.63 1128.28 10.86
9/13/2021 4:15:00 PM 18.84 65.912 0.066 8.61 2012.84 10.8
9/13/2021 4:30:00 PM 18.83 65.894 0.067 8.58 1858.4 10.77
9/13/2021 4:45:00 PM 18.83 65.894 0.067 8.56 1805.32 10.71
9/13/2021 5:00:00 PM 18.81 65.858 0.067 8.53 1879.14 10.65
9/13/2021 5:15:00 PM 18.78 65.804 0.067 8.49 1682.53 10.56
9/13/2021 5:30:00 PM 18.71 65.67799 0.067 8.43 1758.97 10.44
9/13/2021 5:45:00 PM 18.63 65.534 0.067 8.37 1653.68 10.32
9/13/2021 6:00:00 PM 18.54 65.372 0.067 8.3 1668.02 10.17
9/13/2021 6:15:00 PM 18.43 65.174 0.067 8.2 1785.14 9.97
9/13/2021 6:30:00 PM 18.31 64.958 0.068 8.12 1570.88 9.81
9/13/2021 6:45:00 PM 18.19 64.742 0.068 8.05 1458.14 9.69
9/13/2021 7:00:00 PM 18.07 64.526 0.068 7.99 1457.56 9.55
9/13/2021 7:15:00 PM 17.94 64.292 0.068 7.93 1433.83 9.41
9/13/2021 7:30:00 PM 17.81 64.058 0.068 7.89 1421.37 9.33
9/13/2021 7:45:00 PM 17.7 63.86 0.068 7.86 1413.65 9.27
9/13/2021 8:00:00 PM 17.6 63.68 0.069 7.84 1511.44 9.25
9/13/2021 8:15:00 PM 17.5 63.5 0.069 7.82 1529.88 9.24
9/13/2021 8:30:00 PM 17.4 63.32 0.069 7.81 1505.49 9.23
9/13/2021 8:45:00 PM 17.3 63.14 0.069 7.79 1483.21 9.23
9/13/2021 9:00:00 PM 17.23 63.014 0.069 7.78 1486.77 9.24
9/13/2021 9:15:00 PM 17.15 62.87 0.069 7.78 1526.84 9.24
9/13/2021 9:30:00 PM 17.08 62.744 0.069 7.78 1503.06 9.25
9/13/2021 9:45:00 PM 17.01 62.618 0.069 7.77 1507.6 9.26
9/13/2021 10:00:00 PM 16.93 62.474 0.069 7.77 1494.09 9.27
9/13/2021 10:15:00 PM 16.86 62.348 0.07 7.77 1456.99 9.28
9/13/2021 10:30:00 PM 16.8 62.24 0.07 7.76 1465.95 9.29
9/13/2021 10:45:00 PM 16.73 62.114 0.07 7.76 1446.55 9.31
9/13/2021 11:00:00 PM 16.67 62.006 0.07 7.76 1426.93 9.31
9/13/2021 11:15:00 PM 16.61 61.898 0.07 7.76 1393.11 9.32
9/13/2021 11:30:00 PM 16.56 61.808 0.07 7.75 1476.81 9.34
9/13/2021 11:45:00 PM 16.51 61.718 0.07 7.75 1420.68 9.34
9/14/2021 12:00:00 AM 16.46 61.628 0.07 7.75 1450.63 9.36
9/14/2021 12:15:00 AM 16.4 61.52 0.07 7.74 1392.87 9.37
9/14/2021 12:30:00 AM 16.34 61.412 0.07 7.75 1476.32 9.38
9/14/2021 12:45:00 AM 16.3 61.34 0.07 7.75 1478.8 9.39
9/14/2021 1:00:00 AM 16.26 61.268 0.07 7.74 1408.31 9.39
9/14/2021 1:15:00 AM 16.22 61.196 0.071 7.74 1428.4 9.39
9/14/2021 1:30:00 AM 16.17 61.106 0.071 7.74 1387.38 9.39
9/14/2021 1:45:00 AM 16.12 61.016 0.071 7.74 1418.19 9.39
9/14/2021 2:00:00 AM 16.07 60.926 0.071 7.74 1424.27 9.41
9/14/2021 2:15:00 AM 16.03 60.854 0.071 7.74 1382.54 9.42
9/14/2021 2:30:00 AM 16 60.8 0.071 7.74 1418.21 9.43
9/14/2021 2:45:00 AM 15.96 60.728 0.071 7.74 1402.52 9.44
9/14/2021 3:00:00 AM 15.93 60.674 0.071 7.74 1390.21 9.45
9/14/2021 3:15:00 AM 15.9 60.62 0.071 7.74 1408.27 9.46
9/14/2021 3:30:00 AM 15.87 60.566 0.071 7.74 641.83 9.47
9/14/2021 3:45:00 AM 15.84 60.512 0.071 7.74 547.25 9.47
9/14/2021 4:00:00 AM 15.82 60.476 0.071 7.74 547.4 9.47
9/14/2021 4:15:00 AM 15.79 60.422 0.071 7.74 538.76 9.48
9/14/2021 4:30:00 AM 15.76 60.368 0.071 7.74 522.96 9.48
9/14/2021 4:45:00 AM 15.74 60.332 0.071 7.74 765.53 9.47
9/14/2021 5:00:00 AM 15.72 60.296 0.071 7.74 524.33 9.48
9/14/2021 5:15:00 AM 15.7 60.26 0.071 7.74 500.35 9.48
9/14/2021 5:30:00 AM 15.68 60.224 0.071 7.74 481.91 9.49
9/14/2021 5:45:00 AM 15.67 60.206 0.072 7.74 476.06 9.49
9/14/2021 6:00:00 AM 15.66 60.188 0.072 7.74 475.19 9.49
9/14/2021 6:15:00 AM 15.65 60.17 0.072 7.74 553.24 9.5
9/14/2021 6:30:00 AM 15.64 60.152 0.072 7.74 473.02 9.5
9/14/2021 6:45:00 AM 15.62 60.116 0.072 7.75 473.05 9.52
9/14/2021 7:00:00 AM 15.62 60.116 0.072 7.75 467.15 9.56
9/14/2021 7:15:00 AM 15.62 60.116 0.072 7.76 475.53 9.59
9/14/2021 7:30:00 AM 15.62 60.116 0.072 7.77 469.63 9.69
9/14/2021 7:45:00 AM 15.63 60.134 0.072 7.79 475.47 9.84
9/14/2021 8:00:00 AM 15.65 60.17 0.072 7.81 472.83 9.96
9/14/2021 8:15:00 AM 15.68 60.224 0.072 7.85 499.22 10.15
9/14/2021 8:30:00 AM 15.72 60.296 0.072 7.89 500.26 10.33
9/14/2021 8:45:00 AM 15.76 60.368 0.072 7.93 511.16 10.56
9/14/2021 9:00:00 AM 15.8 60.44 0.072 7.96 472.47 10.59
9/14/2021 9:15:00 AM 15.85 60.53 0.072 7.99 474.94 10.71
9/14/2021 9:30:00 AM 15.94 60.692 0.072 8.07 470.77 11
9/14/2021 9:45:00 AM 16.01 60.818 0.072 8.14 473.34 11.17
9/14/2021 10:00:00 AM 16.08 60.944 0.072 8.19 464.79 11.24
9/14/2021 10:15:00 AM 16.19 61.142 0.072 8.27 498.66 11.45
9/14/2021 10:30:00 AM 16.37 61.466 0.072 8.36 468.1 11.65
9/14/2021 10:45:00 AM 16.51 61.718 0.072 8.42 481.98 11.76
9/14/2021 11:00:00 AM 16.69 62.042 0.072 8.49 464.73 11.88
9/14/2021 11:15:00 AM 16.85 62.33 0.072 8.55 473.6 11.97
9/14/2021 11:30:00 AM 16.95 62.51 0.072 8.59 478.15 11.96
9/14/2021 11:45:00 AM 17.13 62.834 0.072 8.62 469.47 12.01
9/14/2021 12:00:00 PM 17.28 63.104 0.072 8.67 473.12 12
9/14/2021 12:15:00 PM 17.39 63.302 0.072 8.67 469.93 11.94
9/14/2021 12:30:00 PM 17.58 63.644 0.072 8.73 477.4 11.97
9/14/2021 12:45:00 PM 17.84 64.112 0.072 8.77 471.54 12.02
9/14/2021 1:00:00 PM 17.86 64.148 0.072 8.76 470.14 11.88
9/14/2021 1:15:00 PM 18.15 64.67 0.072 8.8 467.51 11.92
9/14/2021 1:30:00 PM 18.48 65.264 0.072 8.82 474.34 11.95
9/14/2021 1:45:00 PM 18.73 65.714 0.071 8.85 488.48 11.89
9/14/2021 2:00:00 PM 18.87 65.966 0.072 8.86 488.73 11.76
9/14/2021 2:15:00 PM 18.9 66.02 0.072 8.85 540.54 11.65
9/14/2021 2:30:00 PM 19.17 66.506 0.071 8.87 508.25 11.72
9/14/2021 2:45:00 PM 19.39 66.902 0.072 8.89 504.74 11.72
9/14/2021 3:00:00 PM 19.49 67.082 0.071 8.89 506.79 11.64
9/14/2021 3:15:00 PM 19.64 67.352 0.072 8.89 509.05 11.62
9/14/2021 3:30:00 PM 19.7 67.46 0.072 8.9 502.9 11.51
9/14/2021 3:45:00 PM 19.78 67.604 0.072 8.89 573.97 11.44
9/14/2021 4:00:00 PM 19.82 67.676 0.072 8.88 519.39 11.28
9/14/2021 4:15:00 PM 19.87 67.766 0.072 8.87 505.17 11.19
9/14/2021 4:30:00 PM 19.91 67.838 0.072 8.85 509.98 11.15
9/14/2021 4:45:00 PM 19.94 67.892 0.072 8.82 482.85 11.11
9/14/2021 5:00:00 PM 19.93 67.874 0.072 8.81 453.01 10.98
9/14/2021 5:15:00 PM 19.88 67.784 0.072 8.77 693.3 10.81
9/14/2021 5:30:00 PM 19.81 67.658 0.072 8.69 529.98 10.56
9/14/2021 5:45:00 PM 19.75 67.55 0.072 8.62 552.92 10.36
9/14/2021 6:00:00 PM 19.68 67.424 0.073 8.53 563.73 10.15
9/14/2021 6:15:00 PM 19.62 67.316 0.073 8.46 535.69 10.05
9/14/2021 6:30:00 PM 19.53 67.154 0.073 8.36 555.11 9.82
9/14/2021 6:45:00 PM 19.43 66.974 0.073 8.24 531.7 9.55
9/14/2021 7:00:00 PM 19.32 66.776 0.073 8.13 530.28 9.32
9/14/2021 7:15:00 PM 19.21 66.578 0.073 8.04 521.03 9.07
9/14/2021 7:30:00 PM 19.1 66.38 0.073 7.95 488.09 8.89
9/14/2021 7:45:00 PM 19.01 66.218 0.074 7.9 560.85 8.8
9/14/2021 8:00:00 PM 18.91 66.038 0.074 7.87 493.58 8.73
9/14/2021 8:15:00 PM 18.82 65.876 0.074 7.84 497.69 8.71
9/14/2021 8:30:00 PM 18.73 65.714 0.074 7.82 497.92 8.71
9/14/2021 8:45:00 PM 18.65 65.57 0.074 7.8 686.15 8.72
9/14/2021 9:00:00 PM 18.57 65.426 0.074 7.78 481.93 8.71
9/14/2021 9:15:00 PM 18.49 65.282 0.074 7.78 472.29 8.73
9/14/2021 9:30:00 PM 18.41 65.138 0.074 7.77 478.74 8.74
9/14/2021 9:45:00 PM 18.33 64.994 0.074 7.76 472.49 8.73
9/14/2021 10:00:00 PM 18.27 64.886 0.074 7.75 506.72 8.73
9/14/2021 10:15:00 PM 18.2 64.76 0.074 7.76 481.21 8.75
9/14/2021 10:30:00 PM 18.13 64.634 0.074 7.75 478.64 8.78
9/14/2021 10:45:00 PM 18.07 64.526 0.075 7.72 489.59 8.76
9/14/2021 11:00:00 PM 18.01 64.418 0.075 7.74 475.04 8.78
9/14/2021 11:15:00 PM 17.96 64.328 0.075 7.74 470.06 8.8
9/14/2021 11:30:00 PM 17.91 64.238 0.075 7.75 482.96 8.81
9/14/2021 11:45:00 PM 17.86 64.148 0.075 7.74 494.48 8.83
9/15/2021 12:00:00 AM 17.82 64.076 0.075 7.74 524.33 8.83
9/15/2021 12:15:00 AM 17.77 63.986 0.075 7.74 487.14 8.83
9/15/2021 12:30:00 AM 17.72 63.896 0.075 7.73 554.74 8.84
9/15/2021 12:45:00 AM 17.69 63.842 0.075 7.74 512.72 8.87
9/15/2021 1:00:00 AM 17.65 63.77 0.075 7.73 516.11 8.83
9/15/2021 1:15:00 AM 17.63 63.734 0.075 7.73 599.93 8.86
9/15/2021 1:30:00 AM 17.6 63.68 0.075 7.73 491.53 8.87
9/15/2021 1:45:00 AM 17.57 63.626 0.075 7.73 437.8 8.85
9/15/2021 2:00:00 AM 17.55 63.59 0.075 7.74 423.03 8.89
9/15/2021 2:15:00 AM 17.53 63.554 0.075 7.73 412.63 8.9
9/15/2021 2:30:00 AM 17.52 63.536 0.075 7.74 481.59 8.89
9/15/2021 2:45:00 AM 17.49 63.482 0.075 7.73 507.14 8.91
9/15/2021 3:00:00 AM 17.49 63.482 0.075 7.73 481.52 8.9
9/15/2021 3:15:00 AM 17.47 63.446 0.076 7.75 494.78 8.91
9/15/2021 3:30:00 AM 17.46 63.428 0.076 7.73 501.85 8.91
9/15/2021 3:45:00 AM 17.45 63.41 0.076 7.73 459.24 8.93
9/15/2021 4:00:00 AM 17.44 63.392 0.076 7.74 454.13 8.93
9/15/2021 4:15:00 AM 17.44 63.392 0.077 7.74 452.83 8.94
9/15/2021 4:30:00 AM 17.43 63.374 0.077 7.74 463.03 8.93
9/15/2021 4:45:00 AM 17.4 63.32 0.077 7.74 506.67 8.93
9/15/2021 5:00:00 AM 17.39 63.302 0.076 7.73 718.11 8.93
9/15/2021 5:15:00 AM 17.39 63.302 0.077 7.74 441.75 8.95
9/15/2021 5:30:00 AM 17.37 63.266 0.076 7.74 404.74 8.95
9/15/2021 5:45:00 AM 17.35 63.23 0.076 7.74 406.58 8.96
9/15/2021 6:00:00 AM 17.35 63.23 0.076 7.73 394.43 8.96
9/15/2021 6:15:00 AM 17.36 63.248 0.076 7.74 422.41 8.94
9/15/2021 6:30:00 AM 17.36 63.248 0.076 7.74 409.96 8.95
9/15/2021 6:45:00 AM 17.36 63.248 0.076 7.73 416 8.96
9/15/2021 7:00:00 AM 17.35 63.23 0.076 7.75 402.75 9.02
9/15/2021 7:15:00 AM 17.34 63.212 0.076 7.76 412.26 9.09
9/15/2021 7:30:00 AM 17.34 63.212 0.077 7.76 461.77 9.14
9/15/2021 7:45:00 AM 17.33 63.194 0.077 7.78 363.42 9.37
9/15/2021 8:00:00 AM 17.35 63.23 0.076 7.83 365.82 9.74
9/15/2021 8:15:00 AM 17.41 63.338 0.076 7.91 362.94 10.17
9/15/2021 8:30:00 AM 17.4 63.32 0.076 7.93 362.43 10.16
9/15/2021 8:45:00 AM 17.43 63.374 0.076 7.98 358.91 10.5
9/15/2021 9:00:00 AM 17.51 63.518 0.076 8.09 371.89 10.78
9/15/2021 9:15:00 AM 17.59 63.662 0.076 8.17 373.39 10.98
9/15/2021 9:30:00 AM 17.76 63.968 0.076 8.31 385.72 11.39
9/15/2021 9:45:00 AM 17.91 64.238 0.076 8.38 361.62 11.49
9/15/2021 10:00:00 AM 17.96 64.328 0.076 8.44 349.92 11.59
9/15/2021 10:15:00 AM 18.07 64.526 0.076 8.49 355.59 11.58
9/15/2021 10:30:00 AM 18.06 64.508 0.076 8.44 400.63 11.17
9/15/2021 10:45:00 AM 18.05 64.49 0.076 8.4 406.27 10.96
9/15/2021 11:00:00 AM 18.07 64.526 0.076 8.38 403.75 10.85
9/15/2021 11:15:00 AM 18.11 64.598 0.076 8.39 405 10.88
9/15/2021 11:30:00 AM 18.17 64.706 0.076 8.33 408.17 10.78
9/15/2021 11:45:00 AM 18.25 64.85 0.076 8.44 401.55 11.12
9/15/2021 12:00:00 PM 18.24 64.832 0.076 8.34 382.02 10.65
9/15/2021 12:15:00 PM 18.3 64.94 0.075 8.39 387.96 10.85
9/15/2021 12:30:00 PM 18.65 65.57 0.076 8.55 397.38 11.47
9/15/2021 12:45:00 PM 18.74 65.732 0.076 8.64 451.32 11.71
9/15/2021 1:00:00 PM 18.68 65.624 0.076 8.66 425.73 11.63
9/15/2021 1:15:00 PM 18.7 65.66 0.076 8.68 424.28 11.59
9/15/2021 1:30:00 PM 18.65 65.57 0.076 8.6 424.44 11.07
9/15/2021 1:45:00 PM 18.64 65.552 0.076 8.56 486.82 10.95
9/15/2021 2:00:00 PM 18.64 65.552 0.076 8.57 437.22 11.02
9/15/2021 2:15:00 PM 18.62 65.516 0.076 8.54 442.48 10.86
9/15/2021 2:30:00 PM 18.56 65.408 0.077 8.49 476.32 10.72
9/15/2021 2:45:00 PM 18.58 65.444 0.077 8.54 473.77 10.96
9/15/2021 3:00:00 PM 18.5 65.3 0.077 8.39 525.01 10.36
9/15/2021 3:15:00 PM 18.4 65.12 0.075 8.27 527.54 10
9/15/2021 3:30:00 PM 18.37 65.066 0.073 8.2 555.05 9.86
9/15/2021 3:45:00 PM 18.52 65.336 0.069 8.1 469.58 9.61
9/15/2021 4:00:00 PM 18.5 65.3 0.068 8.02 567.7 9.51
9/15/2021 4:15:00 PM 18.35 65.03 0.069 8.01 623.38 9.55
9/15/2021 4:30:00 PM 18.15 64.67 0.07 7.98 636.08 9.54
9/15/2021 4:45:00 PM 18.05 64.49 0.068 7.94 871.32 9.46
9/15/2021 5:00:00 PM 18.02 64.436 0.066 7.93 506.37 9.51
9/15/2021 5:15:00 PM 17.95 64.31 0.064 7.91 925.67 9.56
9/15/2021 5:30:00 PM 17.85 64.13 0.062 7.89 539.36 9.53
9/15/2021 5:45:00 PM 17.81 64.058 0.06 7.88 704.61 9.5
9/15/2021 6:00:00 PM 17.8 64.04 0.059 7.86 686.94 9.5
9/15/2021 6:15:00 PM 17.81 64.058 0.06 7.84 811.01 9.49
9/15/2021 6:30:00 PM 17.8 64.04 0.059 7.83 799.2 9.49
9/15/2021 6:45:00 PM 17.79 64.022 0.059 7.81 629.59 9.48
9/15/2021 7:00:00 PM 17.76 63.968 0.059 7.8 711.22 9.47
9/15/2021 7:15:00 PM 17.72 63.896 0.059 7.79 778.62 9.48
9/15/2021 7:30:00 PM 17.68 63.824 0.06 7.78 705.11 9.48
9/15/2021 7:45:00 PM 17.64 63.752 0.06 7.78 716.38 9.49
9/15/2021 8:00:00 PM 17.59 63.662 0.059 7.78 761.37 9.51
9/15/2021 8:15:00 PM 17.54 63.572 0.059 7.77 619.3 9.51
9/15/2021 8:30:00 PM 17.5 63.5 0.059 7.77 640.73 9.52
9/15/2021 8:45:00 PM 17.45 63.41 0.059 7.76 635.39 9.53
9/15/2021 9:00:00 PM 17.41 63.338 0.059 7.76 672.94 9.54
9/15/2021 9:15:00 PM 17.37 63.266 0.059 7.76 686.42 9.55
9/15/2021 9:30:00 PM 17.33 63.194 0.059 7.75 702.8 9.56
9/15/2021 9:45:00 PM 17.29 63.122 0.059 7.75 709.18 9.57
9/15/2021 10:00:00 PM 17.25 63.05 0.059 7.75 758.33 9.57
9/15/2021 10:15:00 PM 17.21 62.978 0.059 7.74 759.05 9.58
9/15/2021 10:30:00 PM 17.15 62.87 0.059 7.74 777.08 9.6
9/15/2021 10:45:00 PM 17.11 62.798 0.058 7.74 741.82 9.62
9/15/2021 11:00:00 PM 17.07 62.726 0.058 7.74 780.82 9.63
9/15/2021 11:15:00 PM 17.04 62.672 0.061 7.73 794.97 9.63
9/15/2021 11:30:00 PM 17.01 62.618 0.061 7.73 556.79 9.63
9/15/2021 11:45:00 PM 16.98 62.564 0.06 7.72 749.05 9.64
9/16/2021 12:00:00 AM 16.95 62.51 0.063 7.72 753.56 9.64
9/16/2021 12:15:00 AM 16.93 62.474 0.063 7.72 728.91 9.64
9/16/2021 12:30:00 AM 16.9 62.42 0.063 7.72 719.84 9.64
9/16/2021 12:45:00 AM 16.86 62.348 0.063 7.71 718.95 9.65
9/16/2021 1:00:00 AM 16.83 62.294 0.06 7.71 746.75 9.66
9/16/2021 1:15:00 AM 16.81 62.258 0.06 7.72 516.02 9.66
9/16/2021 1:30:00 AM 16.78 62.204 0.06 7.71 515.19 9.66
9/16/2021 1:45:00 AM 16.75 62.15 0.06 7.71 519.9 9.66
9/16/2021 2:00:00 AM 16.72 62.096 0.06 7.71 524.12 9.68
9/16/2021 2:15:00 AM 16.69 62.042 0.06 7.71 526.83 9.67
9/16/2021 2:30:00 AM 16.67 62.006 0.06 7.71 520.02 9.68
9/16/2021 2:45:00 AM 16.64 61.952 0.06 7.71 521.72 9.68
9/16/2021 3:00:00 AM 16.62 61.916 0.06 7.71 524.81 9.69
9/16/2021 3:15:00 AM 16.59 61.862 0.06 7.71 519.24 9.69
9/16/2021 3:30:00 AM 16.57 61.826 0.061 7.71 525.73 9.7
9/16/2021 3:45:00 AM 16.54 61.772 0.061 7.71 522.02 9.7
9/16/2021 4:00:00 AM 16.52 61.736 0.061 7.71 520.08 9.71
9/16/2021 4:15:00 AM 16.49 61.682 0.061 7.71 521.94 9.71
9/16/2021 4:30:00 AM 16.47 61.646 0.062 7.71 524.11 9.71
9/16/2021 4:45:00 AM 16.44 61.592 0.062 7.71 530.84 9.72
9/16/2021 5:00:00 AM 16.41 61.538 0.062 7.71 522.77 9.72
9/16/2021 5:15:00 AM 16.38 61.484 0.062 7.71 525.26 9.73
9/16/2021 5:30:00 AM 16.35 61.43 0.062 7.71 546.95 9.72
9/16/2021 5:45:00 AM 16.31 61.358 0.063 7.71 544.72 9.74
9/16/2021 6:00:00 AM 16.28 61.304 0.063 7.71 536.17 9.75
9/16/2021 6:15:00 AM 16.24 61.232 0.063 7.71 544.93 9.75
9/16/2021 6:30:00 AM 16.21 61.178 0.064 7.71 569.71 9.76
9/16/2021 6:45:00 AM 16.18 61.124 0.064 7.71 560.08 9.77
9/16/2021 7:00:00 AM 16.15 61.07 0.063 7.71 560.11 9.79
9/16/2021 7:15:00 AM 16.13 61.034 0.063 7.72 555.08 9.81
9/16/2021 7:30:00 AM 16.11 60.998 0.063 7.72 545.11 9.89
9/16/2021 7:45:00 AM 16.09 60.962 0.063 7.74 543.85 9.97
9/16/2021 8:00:00 AM 16.08 60.944 0.063 7.75 540.14 10.03
9/16/2021 8:15:00 AM 16.08 60.944 0.064 7.77 523.13 10.11
9/16/2021 8:30:00 AM 16.08 60.944 0.064 7.78 521.83 10.19
9/16/2021 8:45:00 AM 16.13 61.034 0.064 7.82 520.95 10.38
9/16/2021 9:00:00 AM 16.12 61.016 0.064 7.82 520.15 10.32
9/16/2021 9:15:00 AM 16.18 61.124 0.064 7.84 519.55 10.44
9/16/2021 9:30:00 AM 16.28 61.304 0.064 7.89 468.11 10.62
9/16/2021 9:45:00 AM 16.31 61.358 0.064 7.91 470.8 10.65
9/16/2021 10:00:00 AM 16.38 61.484 0.064 7.93 477.61 10.71
9/16/2021 10:15:00 AM 16.43 61.574 0.064 7.96 466.92 10.69
9/16/2021 10:30:00 AM 16.48 61.664 0.064 7.96 492.89 10.65
9/16/2021 10:45:00 AM 16.65 61.97 0.064 8.01 505.5 10.79
9/16/2021 11:00:00 AM 16.81 62.258 0.064 8.05 498.92 10.83
9/16/2021 11:15:00 AM 16.93 62.474 0.064 8.06 511.75 10.74
9/16/2021 11:30:00 AM 17.01 62.618 0.064 8.06 492.99 10.68
9/16/2021 11:45:00 AM 17 62.6 0.064 8.06 485.3 10.64
9/16/2021 12:00:00 PM 17.22 62.996 0.064 8.1 480.53 10.82
9/16/2021 12:15:00 PM 17.32 63.176 0.064 8.14 468.61 10.85
9/16/2021 12:30:00 PM 17.54 63.572 0.065 8.17 469.69 10.94
9/16/2021 12:45:00 PM 17.72 63.896 0.065 8.22 476.83 11
9/16/2021 1:00:00 PM 17.9 64.22 0.065 8.26 479.09 11.04
9/16/2021 1:15:00 PM 18.1 64.58 0.065 8.29 481.14 11.04
9/16/2021 1:30:00 PM 18.21 64.778 0.065 8.31 479.13 10.97
9/16/2021 1:45:00 PM 18.25 64.85 0.065 8.3 479.03 10.79
9/16/2021 2:00:00 PM 18.21 64.778 0.065 8.25 492.7 10.61
9/16/2021 2:15:00 PM 18.44 65.192 0.065 8.29 488.88 10.83
9/16/2021 2:30:00 PM 18.57 65.426 0.065 8.33 479.56 10.85
9/16/2021 2:45:00 PM 18.52 65.336 0.065 8.28 476.57 10.69
9/16/2021 3:00:00 PM 18.49 65.282 0.066 8.25 473.13 10.55
9/16/2021 3:15:00 PM 18.66 65.588 0.065 8.29 471.21 10.65
9/16/2021 3:30:00 PM 18.83 65.894 0.066 8.31 472.32 10.72
9/16/2021 3:45:00 PM 18.8 65.84 0.066 8.25 485.11 10.47
9/16/2021 4:00:00 PM 19.01 66.218 0.066 8.27 471.91 10.58
9/16/2021 4:15:00 PM 19.17 66.506 0.066 8.3 469.28 10.63
9/16/2021 4:30:00 PM 19.23 66.614 0.066 8.3 472.78 10.57
9/16/2021 4:45:00 PM 19.24 66.632 0.066 8.27 474.76 10.46
9/16/2021 5:00:00 PM 19.22 66.596 0.066 8.25 472.1 10.37
9/16/2021 5:15:00 PM 19.14 66.452 0.067 8.2 471.45 10.25
9/16/2021 5:30:00 PM 19.02 66.236 0.067 8.15 472.62 10.14
9/16/2021 5:45:00 PM 18.9 66.02 0.067 8.09 451.96 10.01
9/16/2021 6:00:00 PM 18.79 65.82201 0.067 8.04 461.69 9.92
9/16/2021 6:15:00 PM 18.68 65.624 0.067 8 469.06 9.8
9/16/2021 6:30:00 PM 18.54 65.372 0.067 7.95 467.17 9.65
9/16/2021 6:45:00 PM 18.41 65.138 0.067 7.91 467.31 9.59
9/16/2021 7:00:00 PM 18.29 64.922 0.067 7.88 470.53 9.49
9/16/2021 7:15:00 PM 18.17 64.706 0.067 7.85 471.49 9.43
9/16/2021 7:30:00 PM 18.06 64.508 0.067 7.82 471.73 9.37
9/16/2021 7:45:00 PM 17.96 64.328 0.067 7.8 472.62 9.34
9/16/2021 8:00:00 PM 17.86 64.148 0.067 7.78 472.83 9.33
9/16/2021 8:15:00 PM 17.78 64.004 0.068 7.77 473.03 9.33
9/16/2021 8:30:00 PM 17.7 63.86 0.068 7.76 471.87 9.32
9/16/2021 8:45:00 PM 17.63 63.734 0.068 7.75 472.43 9.33
9/16/2021 9:00:00 PM 17.57 63.626 0.068 7.74 465.69 9.33
9/16/2021 9:15:00 PM 17.52 63.536 0.068 7.74 461.9 9.35
9/16/2021 9:30:00 PM 17.46 63.428 0.068 7.73 462.56 9.36
9/16/2021 9:45:00 PM 17.4 63.32 0.068 7.73 460.8 9.36
9/16/2021 10:00:00 PM 17.34 63.212 0.068 7.72 461.63 9.37
9/16/2021 10:15:00 PM 17.3 63.14 0.068 7.72 458.35 9.38
9/16/2021 10:30:00 PM 17.25 63.05 0.068 7.71 457.23 9.38
9/16/2021 10:45:00 PM 17.2 62.96 0.068 7.72 456.15 9.37
9/16/2021 11:00:00 PM 17.15 62.87 0.068 7.71 468.36 9.4
9/16/2021 11:15:00 PM 17.1 62.78 0.068 7.71 459.12 9.38
9/16/2021 11:30:00 PM 17.05 62.69 0.068 7.71 461.07 9.39
9/16/2021 11:45:00 PM 17 62.6 0.068 7.7 461.07 9.39
9/17/2021 12:00:00 AM 16.94 62.492 0.068 7.7 462.14 9.41
9/17/2021 12:15:00 AM 16.89 62.402 0.069 7.7 466.1 9.45
9/17/2021 12:30:00 AM 16.84 62.312 0.069 7.7 467.26 9.43
9/17/2021 12:45:00 AM 16.8 62.24 0.069 7.7 468.23 9.44
9/17/2021 1:00:00 AM 16.75 62.15 0.069 7.7 472.11 9.47
9/17/2021 1:15:00 AM 16.71 62.078 0.069 7.69 472.96 9.48
9/17/2021 1:30:00 AM 16.66 61.988 0.069 7.7 469.65 9.5
9/17/2021 1:45:00 AM 16.62 61.916 0.069 7.69 469.66 9.51
9/17/2021 2:00:00 AM 16.57 61.826 0.069 7.69 465.82 9.52
9/17/2021 2:15:00 AM 16.52 61.736 0.069 7.69 465.95 9.54
9/17/2021 2:30:00 AM 16.47 61.646 0.069 7.69 467.25 9.55
9/17/2021 2:45:00 AM 16.44 61.592 0.069 7.69 472.41 9.55
9/17/2021 3:00:00 AM 16.42 61.556 0.069 7.7 469.4 9.56
9/17/2021 3:15:00 AM 16.4 61.52 0.069 7.7 470.58 9.58
9/17/2021 3:30:00 AM 16.39 61.502 0.069 7.7 473.44 9.58
9/17/2021 3:45:00 AM 16.38 61.484 0.069 7.7 464.08 9.57
9/17/2021 4:00:00 AM 16.37 61.466 0.069 7.7 465.83 9.58
9/17/2021 4:15:00 AM 16.37 61.466 0.069 7.7 466.19 9.59
9/17/2021 4:30:00 AM 16.37 61.466 0.069 7.7 463.39 9.59
9/17/2021 4:45:00 AM 16.37 61.466 0.069 7.7 466.4 9.59
9/17/2021 5:00:00 AM 16.38 61.484 0.069 7.7 503.11 9.59
9/17/2021 5:15:00 AM 16.38 61.484 0.069 7.7 790.45 9.59
9/17/2021 5:30:00 AM 16.39 61.502 0.069 7.7 534.96 9.6
9/17/2021 5:45:00 AM 16.39 61.502 0.069 7.7 541.76 9.59
9/17/2021 6:00:00 AM 16.39 61.502 0.07 7.7 544.92 9.59
9/17/2021 6:15:00 AM 16.4 61.52 0.07 7.7 551.9 9.6
9/17/2021 6:30:00 AM 16.4 61.52 0.07 7.7 547.26 9.6
9/17/2021 6:45:00 AM 16.4 61.52 0.07 7.7 541.78 9.6
9/17/2021 7:00:00 AM 16.41 61.538 0.07 7.7 539.87 9.63
9/17/2021 7:15:00 AM 16.41 61.538 0.07 7.7 539.77 9.68
9/17/2021 7:30:00 AM 16.42 61.556 0.07 7.71 540.49 9.74
9/17/2021 7:45:00 AM 16.44 61.592 0.07 7.72 541.44 9.88
9/17/2021 8:00:00 AM 16.46 61.628 0.07 7.74 541.05 9.94
9/17/2021 8:15:00 AM 16.48 61.664 0.07 7.76 527.54 10.04
9/17/2021 8:30:00 AM 16.52 61.736 0.07 7.78 526.66 10.15
9/17/2021 8:45:00 AM 16.57 61.826 0.07 7.82 525.62 10.37
9/17/2021 9:00:00 AM 16.63 61.934 0.07 7.87 524.51 10.63
9/17/2021 9:15:00 AM 16.71 62.078 0.07 7.93 524.83 10.85
9/17/2021 9:30:00 AM 16.79 62.222 0.07 7.98 525.45 10.95
9/17/2021 9:45:00 AM 16.86 62.348 0.07 8.02 519.78 11.03
9/17/2021 10:00:00 AM 16.99 62.582 0.07 8.09 518.46 11.23
9/17/2021 10:15:00 AM 17.12 62.816 0.07 8.15 515.8 11.38
9/17/2021 10:30:00 AM 17.32 63.176 0.069 8.23 515.11 11.57
9/17/2021 10:45:00 AM 17.42 63.356 0.069 8.28 498.87 11.64
9/17/2021 11:00:00 AM 17.47 63.446 0.069 8.31 489.57 11.59
9/17/2021 11:15:00 AM 17.62 63.716 0.069 8.36 494.2 11.62
9/17/2021 11:30:00 AM 17.75 63.95 0.069 8.4 489.47 11.69
9/17/2021 11:45:00 AM 17.84 64.112 0.069 8.43 478.27 11.58
9/17/2021 12:00:00 PM 18.01 64.418 0.069 8.46 486.73 11.63
9/17/2021 12:15:00 PM 18.05 64.49 0.069 8.44 492.21 11.51
9/17/2021 12:30:00 PM 18.07 64.526 0.07 8.45 472.09 11.4
9/17/2021 12:45:00 PM 18.11 64.598 0.07 8.44 459.93 11.31
9/17/2021 1:00:00 PM 18.11 64.598 0.07 8.42 461.79 11.19
9/17/2021 1:15:00 PM 18.18 64.724 0.07 8.43 461.62 11.28
9/17/2021 1:30:00 PM 18.26 64.868 0.069 8.47 523.64 11.39
9/17/2021 1:45:00 PM 18.31 64.958 0.069 8.48 523.77 11.42
9/17/2021 2:00:00 PM 18.31 64.958 0.069 8.47 540.94 11.27
9/17/2021 2:15:00 PM 18.31 64.958 0.069 8.45 588.76 11.1
9/17/2021 2:30:00 PM 18.31 64.958 0.07 8.42 605.38 10.97
9/17/2021 2:45:00 PM 18.31 64.958 0.07 8.4 564.34 10.88
9/17/2021 3:00:00 PM 18.3 64.94 0.07 8.34 563.32 10.7
9/17/2021 3:15:00 PM 18.32 64.976 0.07 8.34 567.89 10.71
9/17/2021 3:30:00 PM 18.39 65.102 0.07 8.39 554.99 10.99
9/17/2021 3:45:00 PM 18.39 65.102 0.07 8.38 578.55 10.92
9/17/2021 4:00:00 PM 18.37 65.066 0.07 8.34 604.02 10.73
9/17/2021 4:15:00 PM 18.39 65.102 0.07 8.35 622.13 10.79
9/17/2021 4:30:00 PM 18.52 65.336 0.07 8.38 514.7 11.04
9/17/2021 4:45:00 PM 18.55 65.39 0.07 8.4 483 11.03
9/17/2021 5:00:00 PM 18.43 65.174 0.07 8.34 472.19 10.7
9/17/2021 5:15:00 PM 18.41 65.138 0.07 8.29 430.63 10.53
9/17/2021 5:30:00 PM 18.39 65.102 0.07 8.25 486.46 10.49
9/17/2021 5:45:00 PM 18.38 65.084 0.07 8.21 496.63 10.32
9/17/2021 6:00:00 PM 18.35 65.03 0.07 8.16 499.7 10.21
9/17/2021 6:15:00 PM 18.31 64.958 0.07 8.12 491.14 10.14
9/17/2021 6:30:00 PM 18.25 64.85 0.07 8.06 492.22 9.89
9/17/2021 6:45:00 PM 18.2 64.76 0.07 8 483.63 9.73
9/17/2021 7:00:00 PM 18.13 64.634 0.07 7.95 485.45 9.58
9/17/2021 7:15:00 PM 18.06 64.508 0.07 7.9 483.14 9.44
9/17/2021 7:30:00 PM 17.99 64.382 0.07 7.86 476.64 9.35
9/17/2021 7:45:00 PM 17.93 64.274 0.07 7.83 480.13 9.28
9/17/2021 8:00:00 PM 17.85 64.13 0.071 7.8 485.41 9.27
9/17/2021 8:15:00 PM 17.79 64.022 0.071 7.79 477.52 9.25
9/17/2021 8:30:00 PM 17.72 63.896 0.071 7.77 484.5 9.25
9/17/2021 8:45:00 PM 17.64 63.752 0.071 7.76 486.78 9.26
9/17/2021 9:00:00 PM 17.57 63.626 0.071 7.75 474.65 9.27
9/17/2021 9:15:00 PM 17.5 63.5 0.071 7.75 494.63 9.28
9/17/2021 9:30:00 PM 17.45 63.41 0.071 7.74 490.38 9.29
9/17/2021 9:45:00 PM 17.39 63.302 0.071 7.73 495.28 9.3
9/17/2021 10:00:00 PM 17.33 63.194 0.071 7.74 492.15 9.31
9/17/2021 10:15:00 PM 17.28 63.104 0.071 7.73 491.37 9.32
9/17/2021 10:30:00 PM 17.23 63.014 0.071 7.73 493.45 9.33
9/17/2021 10:45:00 PM 17.18 62.924 0.071 7.72 494.59 9.33
9/17/2021 11:00:00 PM 17.13 62.834 0.071 7.71 494.41 9.33
9/17/2021 11:15:00 PM 17.08 62.744 0.071 7.71 493.61 9.34
9/17/2021 11:30:00 PM 17.04 62.672 0.071 7.71 492.14 9.35
9/17/2021 11:45:00 PM 17 62.6 0.071 7.71 497.88 9.35
9/18/2021 12:00:00 AM 16.96 62.528 0.071 7.71 492.5 9.36
9/18/2021 12:15:00 AM 16.92 62.456 0.071 7.7 483.91 9.38
9/18/2021 12:30:00 AM 16.88 62.384 0.071 7.7 483.14 9.38
9/18/2021 12:45:00 AM 16.85 62.33 0.071 7.7 484.05 9.38
9/18/2021 1:00:00 AM 16.81 62.258 0.071 7.7 477.58 9.4
9/18/2021 1:15:00 AM 16.78 62.204 0.071 7.7 480.81 9.4
9/18/2021 1:30:00 AM 16.75 62.15 0.071 7.7 482.56 9.41
9/18/2021 1:45:00 AM 16.74 62.132 0.071 7.7 482.31 9.41
9/18/2021 2:00:00 AM 16.73 62.114 0.071 7.7 486.27 9.41
9/18/2021 2:15:00 AM 16.7 62.06 0.071 7.69 481.2 9.42
9/18/2021 2:30:00 AM 16.67 62.006 0.071 7.69 477.7 9.42
9/18/2021 2:45:00 AM 16.66 61.988 0.071 7.69 479.38 9.4
9/18/2021 3:00:00 AM 16.66 61.988 0.071 7.69 479.66 9.42
9/18/2021 3:15:00 AM 16.64 61.952 0.071 7.69 479.98 9.42
9/18/2021 3:30:00 AM 16.65 61.97 0.071 7.69 479.97 9.4
9/18/2021 3:45:00 AM 16.66 61.988 0.071 7.69 490.78 9.42
9/18/2021 4:00:00 AM 16.67 62.006 0.071 7.69 489.43 9.41
9/18/2021 4:15:00 AM 16.67 62.006 0.071 7.68 488.58 9.4
9/18/2021 4:30:00 AM 16.68 62.024 0.071 7.68 488.56 9.4
9/18/2021 4:45:00 AM 16.69 62.042 0.071 7.68 489.71 9.39
9/18/2021 5:00:00 AM 16.7 62.06 0.071 7.68 497.05 9.4
9/18/2021 5:15:00 AM 16.71 62.078 0.071 7.68 495.49 9.4
9/18/2021 5:30:00 AM 16.71 62.078 0.071 7.66 495.96 9.4
9/18/2021 5:45:00 AM 16.71 62.078 0.071 7.65 490.47 9.4
9/18/2021 6:00:00 AM 16.71 62.078 0.071 7.65 487.28 9.36
9/18/2021 6:15:00 AM 16.72 62.096 0.071 7.65 481.14 9.36
9/18/2021 6:30:00 AM 16.7 62.06 0.071 7.65 482.37 9.35
9/18/2021 6:45:00 AM 16.67 62.006 0.071 7.65 475.83 9.39
9/18/2021 7:00:00 AM 16.66 61.988 0.071 7.66 468.16 9.44
9/18/2021 7:15:00 AM 16.63 61.934 0.071 7.67 476.27 9.55
9/18/2021 7:30:00 AM 16.64 61.952 0.071 7.69 476.46 9.62
9/18/2021 7:45:00 AM 16.65 61.97 0.071 7.69 477.28 9.79
9/18/2021 8:00:00 AM 16.66 61.988 0.071 7.72 478.96 9.97
9/18/2021 8:15:00 AM 16.68 62.024 0.071 7.75 477.08 10.13
9/18/2021 8:30:00 AM 16.7 62.06 0.071 7.77 476.1 10.2
9/18/2021 8:45:00 AM 16.77 62.186 0.071 7.83 478.64 10.57
9/18/2021 9:00:00 AM 16.82 62.276 0.071 7.88 479.66 10.76
9/18/2021 9:15:00 AM 16.87 62.366 0.071 7.94 474.35 10.87
9/18/2021 9:30:00 AM 16.96 62.528 0.071 7.97 469.31 11.06
9/18/2021 9:45:00 AM 17 62.6 0.071 8.02 468.37 11.11
9/18/2021 10:00:00 AM 17.11 62.798 0.071 8.05 467.41 11.26
9/18/2021 10:15:00 AM 17.18 62.924 0.071 8.17 465.29 11.28
9/18/2021 10:30:00 AM 17.29 63.122 0.07 8.22 464.51 11.37
9/18/2021 10:45:00 AM 17.47 63.446 0.07 8.25 442.68 11.55
9/18/2021 11:00:00 AM 17.65 63.77 0.07 8.3 432.38 11.63
9/18/2021 11:15:00 AM 17.75 63.95 0.07 8.33 429.08 11.55
9/18/2021 11:30:00 AM 17.87 64.166 0.07 8.37 430.95 11.58
9/18/2021 11:45:00 AM 18.1 64.58 0.07 8.47 430.28 11.7
9/18/2021 12:00:00 PM 18.24 64.832 0.07 8.52 424.08 11.7
9/18/2021 12:15:00 PM 18.25 64.85 0.07 8.54 420.63 11.55
9/18/2021 12:30:00 PM 18.46 65.228 0.07 8.62 474.64 11.7
9/18/2021 12:45:00 PM 18.47 65.246 0.07 8.66 493.74 11.5
9/18/2021 1:00:00 PM 18.53 65.354 0.07 8.67 576.16 11.31
9/18/2021 1:15:00 PM 18.66 65.588 0.07 8.72 562.15 11.44
9/18/2021 1:30:00 PM 18.7 65.66 0.07 8.7 573.68 11.35
9/18/2021 1:45:00 PM 18.77 65.786 0.07 8.72 565.25 11.33
9/18/2021 2:00:00 PM 18.97 66.146 0.07 8.76 556 11.53
9/18/2021 2:15:00 PM 19.02 66.236 0.07 8.76 550.72 11.47
9/18/2021 2:30:00 PM 19.2 66.56 0.07 8.8 601.91 11.62
9/18/2021 2:45:00 PM 19.25 66.65 0.07 8.81 604.56 11.55
9/18/2021 3:00:00 PM 19.19 66.542 0.07 8.78 618.75 11.39
9/18/2021 3:15:00 PM 19.37 66.866 0.07 8.8 370.59 11.47
9/18/2021 3:30:00 PM 19.35 66.83 0.07 8.76 502.69 11.25
9/18/2021 3:45:00 PM 19.39 66.902 0.07 8.72 503.75 11.14
9/18/2021 4:00:00 PM 19.36 66.848 0.07 8.68 521.07 10.9
9/18/2021 4:15:00 PM 19.4 66.92 0.071 8.66 516.87 10.86
9/18/2021 4:30:00 PM 19.43 66.974 0.07 8.67 517.62 10.91
9/18/2021 4:45:00 PM 19.39 66.902 0.071 8.58 523.19 10.59
9/18/2021 5:00:00 PM 19.38 66.884 0.071 8.57 522.46 10.62
9/18/2021 5:15:00 PM 19.39 66.902 0.071 8.55 519.4 10.57
9/18/2021 5:30:00 PM 19.26 66.668 0.071 8.43 523.08 10.25
9/18/2021 5:45:00 PM 19.24 66.632 0.071 8.41 525.1 10.27
9/18/2021 6:00:00 PM 19.2 66.56 0.071 8.38 525.81 10.25
9/18/2021 6:15:00 PM 19.12 66.416 0.071 8.28 517.33 9.97
9/18/2021 6:30:00 PM 19.01 66.218 0.071 8.15 520.77 9.69
9/18/2021 6:45:00 PM 18.91 66.038 0.071 8.06 521.04 9.5
9/18/2021 7:00:00 PM 18.79 65.82201 0.071 7.98 522.02 9.35
9/18/2021 7:15:00 PM 18.68 65.624 0.072 7.93 507.39 9.23
9/18/2021 7:30:00 PM 18.57 65.426 0.072 7.88 505.87 9.13
9/18/2021 7:45:00 PM 18.45 65.21 0.072 7.83 505.64 9.09
9/18/2021 8:00:00 PM 18.32 64.976 0.072 7.81 504.15 9.07
9/18/2021 8:15:00 PM 18.2 64.76 0.072 7.8 503.96 9.06
9/18/2021 8:30:00 PM 18.07 64.526 0.072 7.79 503.94 9.08
9/18/2021 8:45:00 PM 17.95 64.31 0.072 7.77 503.86 9.08
9/18/2021 9:00:00 PM 17.83 64.094 0.072 7.76 507.04 9.09
9/18/2021 9:15:00 PM 17.72 63.896 0.072 7.76 506.47 9.1
9/18/2021 9:30:00 PM 17.61 63.698 0.072 7.75 507.14 9.14
9/18/2021 9:45:00 PM 17.5 63.5 0.072 7.75 507.33 9.16
9/18/2021 10:00:00 PM 17.39 63.302 0.072 7.74 502.08 9.19
9/18/2021 10:15:00 PM 17.29 63.122 0.072 7.75 480.82 9.19
9/18/2021 10:30:00 PM 17.19 62.942 0.072 7.75 478.56 9.22
9/18/2021 10:45:00 PM 17.09 62.762 0.073 7.75 479.37 9.24
9/18/2021 11:00:00 PM 16.99 62.582 0.073 7.74 478.67 9.25
9/18/2021 11:15:00 PM 16.9 62.42 0.073 7.74 477.15 9.28
9/18/2021 11:30:00 PM 16.8 62.24 0.073 7.73 480.54 9.3
9/18/2021 11:45:00 PM 16.71 62.078 0.072 7.72 481.62 9.32
9/19/2021 12:00:00 AM 16.62 61.916 0.072 7.72 478.82 9.34
9/19/2021 12:15:00 AM 16.53 61.754 0.072 7.72 478.4 9.36
9/19/2021 12:30:00 AM 16.45 61.61 0.072 7.73 470.76 9.37
9/19/2021 12:45:00 AM 16.36 61.448 0.072 7.72 469.17 9.39
9/19/2021 1:00:00 AM 16.28 61.304 0.072 7.72 468.19 9.41
9/19/2021 1:15:00 AM 16.22 61.196 0.072 7.71 472.57 9.42
9/19/2021 1:30:00 AM 16.15 61.07 0.072 7.71 478.52 9.44
9/19/2021 1:45:00 AM 16.11 60.998 0.072 7.71 475.85 9.45
9/19/2021 2:00:00 AM 16.07 60.926 0.073 7.71 473.4 9.46
9/19/2021 2:15:00 AM 16.04 60.872 0.072 7.7 475.31 9.48
9/19/2021 2:30:00 AM 15.99 60.782 0.073 7.67 474.15 9.48
9/19/2021 2:45:00 AM 15.95 60.71 0.072 7.69 473.88 9.49
9/19/2021 3:00:00 AM 15.91 60.638 0.073 7.7 478.49 9.51
9/19/2021 3:15:00 AM 15.86 60.548 0.073 7.7 515.51 9.51
9/19/2021 3:30:00 AM 15.81 60.458 0.073 7.7 500.13 9.52
9/19/2021 3:45:00 AM 15.77 60.386 0.073 7.71 466.32 9.54
9/19/2021 4:00:00 AM 15.73 60.314 0.073 7.7 479.64 9.55
9/19/2021 4:15:00 AM 15.68 60.224 0.073 7.69 462.06 9.55
9/19/2021 4:30:00 AM 15.63 60.134 0.073 7.71 463.84 9.57
9/19/2021 4:45:00 AM 15.58 60.044 0.073 7.7 462.48 9.59
9/19/2021 5:00:00 AM 15.52 59.936 0.073 7.68 462.59 9.6
9/19/2021 5:15:00 AM 15.46 59.828 0.073 7.68 459.72 9.61
9/19/2021 5:30:00 AM 15.4 59.72 0.073 7.7 460.55 9.62
9/19/2021 5:45:00 AM 15.34 59.612 0.073 7.7 458.2 9.65
9/19/2021 6:00:00 AM 15.29 59.522 0.073 7.7 462.14 9.65
9/19/2021 6:15:00 AM 15.25 59.45 0.073 7.7 461.22 9.68
9/19/2021 6:30:00 AM 15.2 59.36 0.073 7.7 470.42 9.68
9/19/2021 6:45:00 AM 15.14 59.252 0.073 7.71 468.36 9.71
9/19/2021 7:00:00 AM 15.09 59.162 0.073 7.72 468.05 9.76
9/19/2021 7:15:00 AM 15.04 59.072 0.073 7.73 482.4 9.84
9/19/2021 7:30:00 AM 15 59 0.073 7.76 471.26 9.98
9/19/2021 7:45:00 AM 14.97 58.946 0.073 7.78 462.53 10.2
9/19/2021 8:00:00 AM 14.95 58.91 0.073 7.82 459.36 10.41
9/19/2021 8:15:00 AM 14.93 58.874 0.073 7.85 458.23 10.64
9/19/2021 8:30:00 AM 14.93 58.874 0.072 7.92 460.42 10.89
9/19/2021 8:45:00 AM 14.94 58.892 0.072 8 460.29 11.15
9/19/2021 9:00:00 AM 14.95 58.91 0.072 8.07 457.63 11.36
9/19/2021 9:15:00 AM 14.99 58.982 0.072 8.17 438.29 11.59
9/19/2021 9:30:00 AM 15.01 59.018 0.072 8.2 432.37 11.61
9/19/2021 9:45:00 AM 15.06 59.108 0.072 8.19 434.29 11.47
9/19/2021 10:00:00 AM 15.14 59.252 0.072 8.2 436.4 11.44
9/19/2021 10:15:00 AM 15.26 59.468 0.072 8.22 433.35 11.5
9/19/2021 10:30:00 AM 15.39 59.702 0.072 8.25 438.38 11.56
9/19/2021 10:45:00 AM 15.52 59.936 0.072 8.3 438.52 11.62
9/19/2021 11:00:00 AM 15.65 60.17 0.072 8.35 459.17 11.69
9/19/2021 11:15:00 AM 15.76 60.368 0.072 8.39 422.4 11.74
9/19/2021 11:30:00 AM 15.88 60.584 0.072 8.43 437.72 11.78
9/19/2021 11:45:00 AM 16.04 60.872 0.072 8.47 429.71 11.81
9/19/2021 12:00:00 PM 16.21 61.178 0.072 8.5 419.59 11.84
9/19/2021 12:15:00 PM 16.39 61.502 0.072 8.53 427.67 11.86
9/19/2021 12:30:00 PM 16.58 61.844 0.072 8.55 433.32 11.87
9/19/2021 12:45:00 PM 16.79 62.222 0.072 8.59 431.78 11.87
9/19/2021 1:00:00 PM 16.96 62.528 0.072 8.6 438.29 11.84
9/19/2021 1:15:00 PM 17.11 62.798 0.072 8.63 443.61 11.86
9/19/2021 1:30:00 PM 17.29 63.122 0.072 8.65 429.31 11.84
9/19/2021 1:45:00 PM 17.45 63.41 0.072 8.67 446.25 11.81
9/19/2021 2:00:00 PM 17.59 63.662 0.072 8.68 448.99 11.78
9/19/2021 2:15:00 PM 17.72 63.896 0.072 8.69 446.22 11.77
9/19/2021 2:30:00 PM 17.83 64.094 0.072 8.69 443.81 11.73
9/19/2021 2:45:00 PM 17.94 64.292 0.072 8.7 444.59 11.7
9/19/2021 3:00:00 PM 18.06 64.508 0.072 8.7 443.33 11.66
9/19/2021 3:15:00 PM 18.15 64.67 0.072 8.7 438.85 11.59
9/19/2021 3:30:00 PM 18.22 64.796 0.072 8.7 432.87 11.54
9/19/2021 3:45:00 PM 18.29 64.922 0.072 8.69 442.52 11.49
9/19/2021 4:00:00 PM 18.32 64.976 0.072 8.67 442.02 11.41
9/19/2021 4:15:00 PM 18.35 65.03 0.072 8.66 451.08 11.34
9/19/2021 4:30:00 PM 18.35 65.03 0.072 8.63 445.71 11.25
9/19/2021 4:45:00 PM 18.33 64.994 0.072 8.61 449.19 11.14
9/19/2021 5:00:00 PM 18.32 64.976 0.073 8.56 453.35 11.04
9/19/2021 5:15:00 PM 18.27 64.886 0.072 8.52 453.74 10.9
9/19/2021 5:30:00 PM 18.23 64.814 0.073 8.46 454.51 10.73
9/19/2021 5:45:00 PM 18.15 64.67 0.073 8.38 453.81 10.54
9/19/2021 6:00:00 PM 18.04 64.472 0.073 8.28 454.52 10.32
9/19/2021 6:15:00 PM 17.92 64.256 0.073 8.18 454.65 10.09
9/19/2021 6:30:00 PM 17.78 64.004 0.073 8.07 460.59 9.85
9/19/2021 6:45:00 PM 17.65 63.77 0.073 8 525.22 9.72
9/19/2021 7:00:00 PM 17.51 63.518 0.073 7.94 534.46 9.56
9/19/2021 7:15:00 PM 17.35 63.23 0.073 7.88 535.78 9.45
9/19/2021 7:30:00 PM 17.2 62.96 0.073 7.85 510.89 9.36
9/19/2021 7:45:00 PM 17.05 62.69 0.074 7.82 528.93 9.33

These are provisional data and have not been subject to a quality assurance process, but rather are the raw data reported by the instrument.
H: value is above sensor operating range
L: value is below sensor operating range
Offline: station is not reporting data
NC: parameter is not collected at site

Data Availability & Limitations

Uncertainty and potential for error can be associated with environmental monitoring data. Provisional data have not been subject to a quality assurance process, but rather are the raw data reported by the instrument. Data users are cautioned to consider carefully the provisional nature of the information before using it for decisions that concern personal or public safety or the conduct of business that involves substantial monetary or operational consequences.

Approved data are currently available by request by emailing: srbc@srbc.net. Approved data have been subject to a quality assurance process to correct for equipment or fouling drift. Data recorded during equipment malfunctions have been removed.

View Historical Stations that have been discontinued.